SondeTracker

Meteorological Radiosondes Database

Operations

Sounding was ended - last measurement: 2022-12-06 13:12:07z

MAP
About Radiosonde

Number: U2430416

Launch Site: Lisbon (PT)

Type: RS41

AUX: NO

Frequency: 403.020 MHz

Max Speed: 100 km/h at 9860 m

Average Speed: 40.84 km/h

Max Altitude: 28692 m

Average Ascent Speed: 5.44 m/s

Average Descent Speed: 16.69 m/s

Status: UNKNOWN

Status Changes
Launch Site Type AUX Frequency Status Finder Landing Point Description Changes made by
APRS Statistics

Received Frames: 523

First Frame [UTC]: 2022-12-06 11:16:40z

Last Frame [UTC]: 2022-12-06 13:12:07z

Receivers: CS5LAS-11, CT1EDG, CT1ESY-11, CT2IRJ, CT2IWF-11, CT7ABP-10, CT7ARW-11, CT7AUS-11

Flight Time: 01:55:27 h

Distance From First Measurement: 57.38 km

Nearest City: Coruche (PT) [12.26 km]

Nearest Hunter: CT2IRJ [36.62 km]

Ground Altitude: 69 m

Distance from QTH: 0.00 km

APRS Data
Receiver Number Date/Time [UTC] φ λ Course [°] Speed [km/h] Altitude [m] Description
CS5LAS-11U24304162022-12-06 13:00:4538.857-8.47178229315Clb=-14.9m/s 403.02MHz Type=RS41-SGP Aux[] BK=Off RS41Tracker 1.17
CS5LAS-11U24304162022-12-06 13:00:2538.8567-8.4718617599Clb=-16.1m/s 403.02MHz Type=RS41-SGP Aux[] BK=Off RS41Tracker 1.17
CS5LAS-11U24304162022-12-06 13:00:0538.8568-8.472341049895Clb=-15.1m/s 403.02MHz Type=RS41-SGP Aux[] BK=Off RS41Tracker 1.17
CS5LAS-11U24304162022-12-06 12:59:4538.857-8.47294125131186Clb=-15.6m/s 403.02MHz Type=RS41-SGP Aux[] BK=Off RS41Tracker 1.17
CS5LAS-11U24304162022-12-06 12:59:2538.8574-8.47397102171478Clb=-15.4m/s 403.02MHz Type=RS41-SGP Aux[] BK=Off RS41Tracker 1.17
CS5LAS-11U24304162022-12-06 12:59:0538.8577-8.47485112131768Clb=-15.2m/s 403.02MHz Type=RS41-SGP Aux[] BK=Off RS41Tracker 1.17
CS5LAS-11U24304162022-12-06 12:58:4538.858-8.47548133112062Clb=-15.3m/s 403.02MHz Type=RS41-SGP Aux[] BK=Off RS41Tracker 1.17
CS5LAS-11U24304162022-12-06 12:58:2538.8585-8.4759510592361Clb=-15.3m/s 403.02MHz Type=RS41-SGP Aux[] BK=Off RS41Tracker 1.17
CS5LAS-11U24304162022-12-06 12:58:0538.8581-8.4768246172663Clb=-15.8m/s 403.02MHz Type=RS41-SGP Aux[] BK=Off RS41Tracker 1.17
CS5LAS-11U24304162022-12-06 12:57:4538.8574-8.4773926192975Clb=-16.6m/s 403.02MHz Type=RS41-SGP Aux[] BK=Off RS41Tracker 1.17
CS5LAS-11U24304162022-12-06 12:54:0438.8542-8.4973878396833Clb=-20.5m/s 403.02MHz Type=RS41-SGP Aux[] BK=Off RS41Tracker 1.17
CS5LAS-11U24304162022-12-06 12:51:4438.8511-8.517375659571Clb=-22.5m/s 403.02MHz Type=RS41-SGP Aux[] BK=Off RS41Tracker 1.17
CS5LAS-11U24304162022-12-06 12:51:2438.8501-8.5215717810002Clb=-21.1m/s 403.02MHz Type=RS41-SGP Aux[] BK=Off RS41Tracker 1.17
CS5LAS-11U24304162022-12-06 12:51:0438.8486-8.52622638310429Clb=-21.9m/s 403.02MHz Type=RS41-SGP Aux[] BK=Off RS41Tracker 1.17
CS5LAS-11U24304162022-12-06 12:50:0238.843-8.54125766511784Clb=-24.0m/s 403.02MHz Type=RS41-SGP Aux[] BK=Off RS41Tracker 1.17
CS5LAS-11U24304162022-12-06 12:48:4238.8394-8.55519634113794Clb=-27.6m/s 403.02MHz Type=RS41-SGP Aux[] BK=Off RS41Tracker 1.17
CS5LAS-11U24304162022-12-06 12:48:2238.8384-8.55831726114343Clb=-28.4m/s 403.02MHz Type=RS41-SGP Aux[] BK=Off RS41Tracker 1.17
CS5LAS-11U24304162022-12-06 12:48:0238.8376-8.56195745614911Clb=-29.9m/s 403.02MHz Type=RS41-SGP Aux[] BK=Off RS41Tracker 1.17
CS5LAS-11U24304162022-12-06 12:47:4238.837-8.56429532415507Clb=-31.2m/s 403.02MHz Type=RS41-SGP Aux[] BK=Off RS41Tracker 1.17
CS5LAS-11U24304162022-12-06 12:46:0238.8344-8.57365842218886Clb=-37.9m/s 403.02MHz Type=RS41-SGP Aux[] BK=Off RS41Tracker 1.17
CT7AUS-11U24304162022-12-06 12:45:5238.8362-8.577761481124365Clb=-57.3m/s t=-57.2C h=1.0% p=27.4hPa 403.020 MHz Type=RS41-SGP ser=U2430416 Radiosonde
CT2IRJU24304162022-12-06 12:45:4938.8362-8.577761491324366Clb=-57.3m/s p=27.4hPa t=-57.2C h=1.0% 403.020MHz Type=RS41-SGP TxOff=8h29m rdzTTGOsonde
CS5LAS-11U24304162022-12-06 12:44:0238.8362-8.577761481324366Clb=-57.3m/s 403.02MHz Type=RS41-SGP Aux[] BK=Off RS41Tracker 1.17
CT1EDGU24304162022-12-06 12:44:0038.8369-8.582961033327411Clb=-38.1m/s t=-57.0C h=0.9% p=16.7hPa 403.021 MHz Type=RS41-SGP ser=U2430416 Radiosonde
CT7ABP-10U24304162022-12-06 12:43:5938.8372-8.584731066127771Clb=-33.5m/s t=-56.5C h=0.9% p=15.7hPa 403.020 MHz Type=RS41-SGP ser=U2430416 Radiosonde
CT1EDGU24304162022-12-06 12:43:5238.8386-8.587831406728408Clb=-31.4m/s t=-56.8C h=0.9% p=14.2hPa 403.021 MHz Type=RS41-SGP ser=U2430416 Radiosonde
CT1ESY-11U24304162022-12-06 12:43:5138.8391-8.588381325628525Clb=-25.9m/s t=-56.7C h=1.0% p=13.8hPa 403.020 MHz Type=RS41-SGP ser=U2430416 Radiosonde
CT2IWF-11U24304162022-12-06 12:43:5038.8397-8.589651274328692Clb=2.3m/s t=-55.3C h=0.8% p=13.4hPa 403.020 MHz Type=RS41-SGP ser=U2430416 Radiosonde
CT2IRJU24304162022-12-06 12:43:4938.8407-8.59151335728620Clb=6.5m/s p=13.6hPa t=-56.2C h=0.9% 403.020MHz Type=RS41-SGP rdzTTGOsonde
CT2IRJU24304162022-12-06 12:43:4838.8427-8.593881435428501Clb=6.8m/s p=13.9hPa t=-57.0C h=0.9% 403.020MHz Type=RS41-SGP rdzTTGOsonde
CT1EDGU24304162022-12-06 12:43:4338.8444-8.596221295428393Clb=7.0m/s t=-56.9C h=0.8% p=14.1hPa 403.021 MHz Type=RS41-SGP ser=U2430416 Radiosonde
CS5LAS-11U24304162022-12-06 12:43:4238.8366-8.57883862425594Clb=-67.5m/s 403.02MHz Type=RS41-SGP Aux[] BK=Off RS41Tracker 1.17
CT1ESY-11U24304162022-12-06 12:43:4138.8446-8.596491325728381Clb=5.3m/s t=-57.0C h=0.9% p=14.1hPa 403.020 MHz Type=RS41-SGP ser=U2430416 Radiosonde
CT2IRJU24304162022-12-06 12:43:4038.8446-8.596621355628375Clb=6.0m/s p=14.1hPa t=-57.0C h=0.8% 403.020MHz Type=RS41-SGP rdzTTGOsonde
CT7AUS-11U24304162022-12-06 12:43:3838.8449-8.596991315028357Clb=4.6m/s t=-57.2C h=0.9% p=14.2hPa 403.020 MHz Type=RS41-SGP ser=U2430416 Radiosonde
CT2IWF-11U24304162022-12-06 12:43:3538.8452-8.597581196128333Clb=5.0m/s t=-57.3C h=0.9% p=14.2hPa 403.020 MHz Type=RS41-SGP ser=U2430416 Radiosonde
CT2IRJU24304162022-12-06 12:43:2938.8463-8.599781166728249Clb=5.4m/s p=14.4hPa t=-57.0C h=0.9% 403.020MHz Type=RS41-SGP rdzTTGOsonde
CT1EDGU24304162022-12-06 12:43:2838.8465-8.60051125428224Clb=6.9m/s t=-57.1C h=0.9% p=14.5hPa 403.020 MHz Type=RS41-SGP ser=U2430416 Radiosonde
CT1ESY-11U24304162022-12-06 12:43:2338.8469-8.601231304128188Clb=5.4m/s t=-57.1C h=1.0% p=14.6hPa 403.020 MHz Type=RS41-SGP ser=U2430416 Radiosonde
CT7ABP-10U24304162022-12-06 12:43:2238.847-8.601461305428175Clb=5.8m/s t=-57.2C h=0.9% p=14.6hPa 403.020 MHz Type=RS41-SGP ser=U2430416 Radiosonde
CT2IWF-11U24304162022-12-06 12:43:2038.8474-8.602231135628146Clb=6.3m/s t=-57.5C h=0.9% p=14.6hPa 403.020 MHz Type=RS41-SGP ser=U2430416 Radiosonde
CT2IRJU24304162022-12-06 12:43:1638.8476-8.602871175028121Clb=7.2m/s p=14.7hPa t=-57.3C h=0.9% 403.020MHz Type=RS41-SGP rdzTTGOsonde
CT1EDGU24304162022-12-06 12:43:0238.8486-8.60511175728038Clb=5.8m/s t=-57.0C h=0.9% p=14.9hPa 403.021 MHz Type=RS41-SGP ser=U2430416 Radiosonde
CS5LAS-11U24304162022-12-06 12:42:4238.8383-8.587451375928307Clb=-36.0m/s 403.02MHz Type=RS41-SGP Aux[] BK=Off RS41Tracker 1.17
CS5LAS-11U24304162022-12-06 12:42:0238.8416-8.592581325228568Clb=4.9m/s 403.02MHz Type=RS41-SGP Aux[] BK=Off RS41Tracker 1.17
CS5LAS-11U24304162022-12-06 12:41:4238.8435-8.594921355428448Clb=5.9m/s 403.02MHz Type=RS41-SGP Aux[] BK=Off RS41Tracker 1.17
CS5LAS-11U24304162022-12-06 12:41:0238.8467-8.600921244428206Clb=6.9m/s 403.02MHz Type=RS41-SGP Aux[] BK=Off RS41Tracker 1.17
CS5LAS-11U24304162022-12-06 12:40:4238.8481-8.603751246528085Clb=4.5m/s 403.02MHz Type=RS41-SGP Aux[] BK=Off RS41Tracker 1.17
CS5LAS-11U24304162022-12-06 12:39:4238.8514-8.614391015927735Clb=5.8m/s 403.02MHz Type=RS41-SGP Aux[] BK=Off RS41Tracker 1.17
CS5LAS-11U24304162022-12-06 12:39:2238.8519-8.617181013527618Clb=5.4m/s 403.02MHz Type=RS41-SGP Aux[] BK=Off RS41Tracker 1.17
CS5LAS-11U24304162022-12-06 12:39:0238.8524-8.618931292427502Clb=6.0m/s 403.02MHz Type=RS41-SGP Aux[] BK=Off RS41Tracker 1.17
CS5LAS-11U24304162022-12-06 12:38:2238.854-8.622911004827274Clb=6.3m/s 403.02MHz Type=RS41-SGP Aux[] BK=Off RS41Tracker 1.17
CS5LAS-11U24304162022-12-06 12:38:0238.8544-8.625981106327162Clb=4.8m/s 403.02MHz Type=RS41-SGP Aux[] BK=Off RS41Tracker 1.17
CS5LAS-11U24304162022-12-06 12:37:4038.8546-8.62951804827039Clb=7.1m/s 403.02MHz Type=RS41-SGP Aux[] BK=Off RS41Tracker 1.17
CS5LAS-11U24304162022-12-06 12:37:2038.8544-8.63254925426929Clb=5.1m/s 403.02MHz Type=RS41-SGP Aux[] BK=Off RS41Tracker 1.17
CS5LAS-11U24304162022-12-06 12:36:3838.8533-8.64028746326712Clb=4.8m/s 403.02MHz Type=RS41-SGP Aux[] BK=Off RS41Tracker 1.17
CS5LAS-11U24304162022-12-06 12:34:5838.8525-8.65169972626159Clb=7.0m/s 403.02MHz Type=RS41-SGP Aux[] BK=Off RS41Tracker 1.17
CS5LAS-11U24304162022-12-06 12:34:3638.8522-8.65326811326037Clb=4.3m/s 403.02MHz Type=RS41-SGP Aux[] BK=Off RS41Tracker 1.17
CS5LAS-11U24304162022-12-06 12:34:1638.8518-8.65434442425916Clb=5.6m/s 403.02MHz Type=RS41-SGP Aux[] BK=Off RS41Tracker 1.17
CS5LAS-11U24304162022-12-06 12:33:5638.8511-8.6554561925797Clb=5.0m/s 403.02MHz Type=RS41-SGP Aux[] BK=Off RS41Tracker 1.17
CS5LAS-11U24304162022-12-06 12:33:3638.851-8.65636137225676Clb=5.7m/s 403.02MHz Type=RS41-SGP Aux[] BK=Off RS41Tracker 1.17
CS5LAS-11U24304162022-12-06 12:33:1638.8509-8.6570449925555Clb=5.9m/s 403.02MHz Type=RS41-SGP Aux[] BK=Off RS41Tracker 1.17
CT1ESY-11U24304162022-12-06 12:33:0338.851-8.65766123925439Clb=6.2m/s t=-57.4C h=0.9% p=22.6hPa 403.020 MHz Type=RS41-SGP ser=U2430416 Radiosonde
CT2IRJU24304162022-12-06 12:32:5538.8511-8.657691811125427Clb=6.3m/s p=22.6hPa t=-57.6C h=0.9% 403.020MHz Type=RS41-SGP rdzTTGOsonde
CS5LAS-11U24304162022-12-06 12:32:3638.8514-8.65798172925313Clb=6.3m/s 403.02MHz Type=RS41-SGP Aux[] BK=Off RS41Tracker 1.17
CS5LAS-11U24304162022-12-06 12:31:5638.853-8.659551392025080Clb=4.3m/s 403.02MHz Type=RS41-SGP Aux[] BK=Off RS41Tracker 1.17
CS5LAS-11U24304162022-12-06 12:31:3638.8533-8.66031831724964Clb=5.8m/s 403.02MHz Type=RS41-SGP Aux[] BK=Off RS41Tracker 1.17
CS5LAS-11U24304162022-12-06 12:30:5638.8543-8.662731343024742Clb=6.8m/s 403.02MHz Type=RS41-SGP Aux[] BK=Off RS41Tracker 1.17
CS5LAS-11U24304162022-12-06 12:30:3638.8551-8.663721242024631Clb=4.0m/s 403.02MHz Type=RS41-SGP Aux[] BK=Off RS41Tracker 1.17
CS5LAS-11U24304162022-12-06 12:30:1638.8554-8.664491191124518Clb=6.2m/s 403.02MHz Type=RS41-SGP Aux[] BK=Off RS41Tracker 1.17
CS5LAS-11U24304162022-12-06 12:29:3638.8564-8.66463348424294Clb=5.0m/s 403.02MHz Type=RS41-SGP Aux[] BK=Off RS41Tracker 1.17
CS5LAS-11U24304162022-12-06 12:29:1638.8563-8.66535792424180Clb=4.5m/s 403.02MHz Type=RS41-SGP Aux[] BK=Off RS41Tracker 1.17
CS5LAS-11U24304162022-12-06 12:28:5638.856-8.66698692024071Clb=5.0m/s 403.02MHz Type=RS41-SGP Aux[] BK=Off RS41Tracker 1.17
CS5LAS-11U24304162022-12-06 12:28:3638.8554-8.6681371923957Clb=6.8m/s 403.02MHz Type=RS41-SGP Aux[] BK=Off RS41Tracker 1.17
CS5LAS-11U24304162022-12-06 12:28:1638.8547-8.66869331923844Clb=5.0m/s 403.02MHz Type=RS41-SGP Aux[] BK=Off RS41Tracker 1.17
CS5LAS-11U24304162022-12-06 12:27:5638.8538-8.66942232623729Clb=6.1m/s 403.02MHz Type=RS41-SGP Aux[] BK=Off RS41Tracker 1.17
CS5LAS-11U24304162022-12-06 12:26:1638.8542-8.669441641723148Clb=6.2m/s 403.02MHz Type=RS41-SGP Aux[] BK=Off RS41Tracker 1.17
CS5LAS-11U24304162022-12-06 12:24:3638.858-8.669451802422565Clb=4.6m/s 403.02MHz Type=RS41-SGP Aux[] BK=Off RS41Tracker 1.17
CT7AUS-11U24304162022-12-06 12:24:2338.8712-8.67591551320750Clb=4.3m/s t=-62.0C h=1.4% p=48.0hPa 403.020 MHz Type=RS41-SGP ser=U2430416 Radiosonde
CT2IWF-11U24304162022-12-06 12:24:1638.8713-8.675961541920735Clb=4.7m/s t=-61.9C h=1.5% p=48.1hPa 403.020 MHz Type=RS41-SGP ser=U2430416 Radiosonde
CT2IRJU24304162022-12-06 12:24:1538.8713-8.675961551920735Clb=4.7m/s p=48.1hPa t=-61.9C h=1.5% 403.020MHz Type=RS41-SGP rdzTTGOsonde
CT1ESY-11U24304162022-12-06 12:24:0838.8714-8.676081312220719Clb=4.7m/s t=-61.9C h=1.4% p=48.3hPa 403.020 MHz Type=RS41-SGP ser=U2430416 Radiosonde
CT2IRJU24304162022-12-06 12:23:2738.8721-8.677011132620629Clb=5.0m/s p=49.0hPa t=-61.9C h=1.5% 403.020MHz Type=RS41-SGP rdzTTGOsonde
CT7AUS-11U24304162022-12-06 12:23:1738.8723-8.677371531520591Clb=5.5m/s t=-61.9C h=1.5% p=49.3hPa 403.020 MHz Type=RS41-SGP ser=U2430416 Radiosonde
CT2IWF-11U24304162022-12-06 12:23:0438.8724-8.677521101120566Clb=6.4m/s t=-62.0C h=1.5% p=49.5hPa 403.020 MHz Type=RS41-SGP ser=U2430416 Radiosonde
CT7ABP-10U24304162022-12-06 12:22:5938.8724-8.677561061320560Clb=4.9m/s t=-62.0C h=1.5% p=49.5hPa 403.020 MHz Type=RS41-SGP ser=U2430416 Radiosonde
CT1ESY-11U24304162022-12-06 12:22:5438.8724-8.677711001920544Clb=4.4m/s t=-61.9C h=1.4% p=49.6hPa 403.020 MHz Type=RS41-SGP ser=U2430416 Radiosonde
CT2IRJU24304162022-12-06 12:22:3638.8726-8.678011362820517Clb=5.4m/s p=49.9hPa t=-61.7C h=1.5% 403.020MHz Type=RS41-SGP rdzTTGOsonde
CT7AUS-11U24304162022-12-06 12:21:5538.8731-8.679251202420425Clb=6.2m/s t=-62.2C h=1.5% p=50.6hPa 403.020 MHz Type=RS41-SGP ser=U2430416 Radiosonde
CT2IRJU24304162022-12-06 12:21:4538.8732-8.679471012620411Clb=5.8m/s p=50.7hPa t=-62.5C h=1.6% 403.020MHz Type=RS41-SGP rdzTTGOsonde
CT1ESY-11U24304162022-12-06 12:21:3538.8732-8.67998812620378Clb=5.0m/s t=-62.7C h=1.6% p=51.0hPa 403.020 MHz Type=RS41-SGP ser=U2430416 Radiosonde
CT1EDGU24304162022-12-06 12:20:5938.8731-8.68068951920309Clb=5.7m/s t=-62.5C h=1.6% p=51.6hPa 403.020 MHz Type=RS41-SGP ser=U2430416 Radiosonde
CT2IRJU24304162022-12-06 12:20:5038.8732-8.68081061920299Clb=4.8m/s p=51.6hPa t=-62.4C h=1.6% 403.020MHz Type=RS41-SGP rdzTTGOsonde
CT7AUS-11U24304162022-12-06 12:20:3638.8732-8.68113901120262Clb=5.2m/s t=-62.4C h=1.6% p=52.0hPa 403.020 MHz Type=RS41-SGP ser=U2430416 Radiosonde
CT2IWF-11U24304162022-12-06 12:20:2238.8732-8.68129941320240Clb=5.8m/s t=-62.4C h=1.6% p=52.2hPa 403.020 MHz Type=RS41-SGP ser=U2430416 Radiosonde
CT7ABP-10U24304162022-12-06 12:20:2038.8732-8.681341071720234Clb=6.3m/s t=-62.4C h=1.6% p=52.2hPa 403.020 MHz Type=RS41-SGP ser=U2430416 Radiosonde
CT1ESY-11U24304162022-12-06 12:19:5738.8733-8.681621151920208Clb=6.0m/s t=-62.3C h=1.6% p=52.4hPa 403.020 MHz Type=RS41-SGP ser=U2430416 Radiosonde
CT2IRJU24304162022-12-06 12:19:3638.8734-8.681841151320187Clb=5.5m/s p=52.6hPa t=-62.5C h=1.6% 403.020MHz Type=RS41-SGP rdzTTGOsonde
CT1EDGU24304162022-12-06 12:19:0938.8736-8.682191232420144Clb=4.7m/s t=-62.1C h=1.5% p=53.0hPa 403.021 MHz Type=RS41-SGP ser=U2430416 Radiosonde
CT7AUS-11U24304162022-12-06 12:18:4738.8737-8.68271181320099Clb=5.2m/s t=-62.7C h=1.6% p=53.4hPa 403.020 MHz Type=RS41-SGP ser=U2430416 Radiosonde
CT2IWF-11U24304162022-12-06 12:18:3938.8739-8.682861361720078Clb=5.4m/s t=-63.0C h=1.6% p=53.5hPa 403.020 MHz Type=RS41-SGP ser=U2430416 Radiosonde
CT2IRJU24304162022-12-06 12:18:3638.8739-8.682861381920078Clb=5.4m/s p=53.5hPa t=-63.0C h=1.7% 403.020MHz Type=RS41-SGP rdzTTGOsonde
CT1ESY-11U24304162022-12-06 12:18:1738.8739-8.68318631720040Clb=4.5m/s t=-63.0C h=1.7% p=53.9hPa 403.020 MHz Type=RS41-SGP ser=U2430416 Radiosonde
CT1EDGU24304162022-12-06 12:17:5238.8739-8.68387962019981Clb=5.6m/s t=-62.8C h=1.7% p=54.4hPa 403.020 MHz Type=RS41-SGP ser=U2430416 Radiosonde
CT2IRJU24304162022-12-06 12:17:4638.8739-8.68402852819969Clb=5.2m/s p=54.5hPa t=-62.7C h=1.7% 403.020MHz Type=RS41-SGP rdzTTGOsonde
CT7AUS-11U24304162022-12-06 12:17:3338.8738-8.68456782019929Clb=4.4m/s t=-62.6C h=1.6% p=54.9hPa 403.020 MHz Type=RS41-SGP ser=U2430416 Radiosonde
CT7ABP-10U24304162022-12-06 12:17:2638.8738-8.68485812219906Clb=6.5m/s t=-62.6C h=1.6% p=55.0hPa 403.020 MHz Type=RS41-SGP ser=U2430416 Radiosonde
CT2IWF-11U24304162022-12-06 12:17:2538.8738-8.68485812219906Clb=6.5m/s t=-62.6C h=1.6% p=55.0hPa 403.020 MHz Type=RS41-SGP ser=U2430416 Radiosonde
CT1ESY-11U24304162022-12-06 12:17:0638.8738-8.68539881519863Clb=5.6m/s t=-62.8C h=1.7% p=55.4hPa 403.020 MHz Type=RS41-SGP ser=U2430416 Radiosonde
CT2IRJU24304162022-12-06 12:17:0138.8738-8.6855811919852Clb=4.7m/s p=55.5hPa t=-62.8C h=1.7% 403.020MHz Type=RS41-SGP rdzTTGOsonde
CT1EDGU24304162022-12-06 12:16:4538.8737-8.68596731919808Clb=5.6m/s t=-62.6C h=1.6% p=55.9hPa 403.020 MHz Type=RS41-SGP ser=U2430416 Radiosonde
CT7AUS-11U24304162022-12-06 12:16:2838.8736-8.68659802219757Clb=5.7m/s t=-62.4C h=1.7% p=56.4hPa 403.020 MHz Type=RS41-SGP ser=U2430416 Radiosonde
CT2IRJU24304162022-12-06 12:16:1838.8736-8.68683763019740Clb=4.9m/s p=56.6hPa t=-62.4C h=1.7% 403.020MHz Type=RS41-SGP rdzTTGOsonde
CS5LAS-11U24304162022-12-06 12:15:5838.8735-8.6873913319712Clb=4.6m/s 403.02MHz Type=RS41-SGP Aux[] BK=Off RS41Tracker 1.17
CT1ESY-11U24304162022-12-06 12:15:5738.8732-8.69068852219513Clb=5.4m/s t=-62.1C h=1.7% p=58.7hPa 403.020 MHz Type=RS41-SGP ser=U2430416 Radiosonde
CT1EDGU24304162022-12-06 12:15:5638.8732-8.69137782819472Clb=5.4m/s t=-62.4C h=1.8% p=59.1hPa 403.020 MHz Type=RS41-SGP ser=U2430416 Radiosonde
CT7AUS-11U24304162022-12-06 12:15:5538.8731-8.69187772019423Clb=4.9m/s t=-62.6C h=1.7% p=59.6hPa 403.020 MHz Type=RS41-SGP ser=U2430416 Radiosonde
CT1ESY-11U24304162022-12-06 12:15:5438.873-8.6929702619348Clb=4.6m/s t=-62.8C h=1.9% p=60.3hPa 403.020 MHz Type=RS41-SGP ser=U2430416 Radiosonde
CT2IRJU24304162022-12-06 12:15:5338.8727-8.69361622219294Clb=5.4m/s p=60.8hPa t=-62.8C h=1.9% 403.020MHz Type=RS41-SGP rdzTTGOsonde
CT7AUS-11U24304162022-12-06 12:15:5238.8726-8.69409681919257Clb=4.1m/s t=-63.0C h=1.9% p=61.2hPa 403.020 MHz Type=RS41-SGP ser=U2430416 Radiosonde
CT2IRJU24304162022-12-06 12:15:5038.8724-8.69479961319191Clb=5.7m/s p=61.8hPa t=-63.2C h=2.0% 403.020MHz Type=RS41-SGP rdzTTGOsonde
CT7AUS-11U24304162022-12-06 12:15:4938.8723-8.69561751319102Clb=4.9m/s t=-64.1C h=2.1% p=62.8hPa 403.020 MHz Type=RS41-SGP ser=U2430416 Radiosonde
CT1ESY-11U24304162022-12-06 12:15:4738.8721-8.69665742019013Clb=5.9m/s t=-64.1C h=2.1% p=63.7hPa 403.020 MHz Type=RS41-SGP ser=U2430416 Radiosonde
CT2IRJU24304162022-12-06 12:15:4638.8721-8.6970686918972Clb=3.7m/s p=64.1hPa t=-64.1C h=2.1% 403.020MHz Type=RS41-SGP rdzTTGOsonde
CT2IWF-11U24304162022-12-06 12:15:4538.8721-8.697471171918922Clb=4.6m/s t=-64.0C h=2.1% p=64.6hPa 403.020 MHz Type=RS41-SGP ser=U2430416 Radiosonde
CT2IRJU24304162022-12-06 12:15:4238.8723-8.697921041518870Clb=5.4m/s p=65.2hPa t=-64.1C h=2.2% 403.020MHz Type=RS41-SGP rdzTTGOsonde
CT1ESY-11U24304162022-12-06 12:15:3938.8722-8.69813751718850Clb=4.4m/s t=-64.0C h=2.1% p=65.4hPa 403.020 MHz Type=RS41-SGP ser=U2430416 Radiosonde
CT1EDGU24304162022-12-06 12:15:3538.8722-8.69835831518826Clb=4.5m/s t=-63.7C h=2.1% p=65.6hPa 403.020 MHz Type=RS41-SGP ser=U2430416 Radiosonde
CT7AUS-11U24304162022-12-06 12:15:2738.8723-8.698771191718785Clb=4.8m/s t=-63.7C h=2.1% p=66.1hPa 403.020 MHz Type=RS41-SGP ser=U2430416 Radiosonde
CT2IRJU24304162022-12-06 12:15:2538.8724-8.698951251318764Clb=5.5m/s p=66.3hPa t=-63.6C h=2.2% 403.020MHz Type=RS41-SGP rdzTTGOsonde
CT1ESY-11U24304162022-12-06 12:15:1238.8727-8.699581412018685Clb=4.7m/s t=-63.6C h=2.2% p=67.1hPa 403.020 MHz Type=RS41-SGP ser=U2430416 Radiosonde
CT1EDGU24304162022-12-06 12:15:0838.8728-8.699781212018665Clb=5.8m/s t=-63.5C h=2.2% p=67.4hPa 403.020 MHz Type=RS41-SGP ser=U2430416 Radiosonde
CT2IRJU24304162022-12-06 12:15:0538.8728-8.699891191918656Clb=3.7m/s p=67.4hPa t=-63.4C h=2.1% 403.020MHz Type=RS41-SGP rdzTTGOsonde
CT7ABP-10U24304162022-12-06 12:15:0038.873-8.700311222818622Clb=6.6m/s t=-63.4C h=2.1% p=67.8hPa 403.020 MHz Type=RS41-SGP ser=U2430416 Radiosonde
CT2IWF-11U24304162022-12-06 12:14:5638.8732-8.700591232218602Clb=3.9m/s t=-63.5C h=2.1% p=68.0hPa 403.020 MHz Type=RS41-SGP ser=U2430416 Radiosonde
CT2IRJU24304162022-12-06 12:14:3638.8733-8.701461063118550Clb=4.9m/s p=68.7hPa t=-63.8C h=2.4% 403.020MHz Type=RS41-SGP rdzTTGOsonde
CT1ESY-11U24304162022-12-06 12:14:2438.8735-8.702021122818519Clb=5.2m/s t=-63.7C h=2.3% p=69.0hPa 403.020 MHz Type=RS41-SGP ser=U2430416 Radiosonde
CT1EDGU24304162022-12-06 12:14:1738.8736-8.70228992618503Clb=6.3m/s t=-63.6C h=2.4% p=69.1hPa 403.020 MHz Type=RS41-SGP ser=U2430416 Radiosonde
CT7AUS-11U24304162022-12-06 12:13:5938.8735-8.703983018461Clb=5.3m/s t=-63.5C h=2.3% p=69.6hPa 403.020 MHz Type=RS41-SGP ser=U2430416 Radiosonde
CT2IRJU24304162022-12-06 12:13:5238.8736-8.70327983018444Clb=4.8m/s p=69.8hPa t=-63.4C h=2.4% 403.020MHz Type=RS41-SGP rdzTTGOsonde
CT2IWF-11U24304162022-12-06 12:13:5138.8736-8.70337903018438Clb=6.1m/s t=-63.4C h=2.3% p=69.9hPa 403.020 MHz Type=RS41-SGP ser=U2430416 Radiosonde
CT1ESY-11U24304162022-12-06 12:13:1638.8733-8.70505673518350Clb=6.2m/s t=-63.4C h=2.3% p=70.9hPa 403.020 MHz Type=RS41-SGP ser=U2430416 Radiosonde
CT1EDGU24304162022-12-06 12:13:1238.8732-8.70527713718339Clb=6.1m/s t=-63.3C h=2.3% p=71.0hPa 403.020 MHz Type=RS41-SGP ser=U2430416 Radiosonde
CT2IRJU24304162022-12-06 12:13:0638.8732-8.70539773918334Clb=5.0m/s p=71.1hPa t=-63.3C h=2.3% 403.020MHz Type=RS41-SGP rdzTTGOsonde
CT7ABP-10U24304162022-12-06 12:12:5338.8731-8.70608813318302Clb=6.5m/s t=-63.7C h=2.3% p=71.5hPa 403.020 MHz Type=RS41-SGP ser=U2430416 Radiosonde
CT7AUS-11U24304162022-12-06 12:12:5038.8731-8.70619793318296Clb=5.0m/s t=-63.9C h=2.5% p=71.5hPa 403.020 MHz Type=RS41-SGP ser=U2430416 Radiosonde
CT2IWF-11U24304162022-12-06 12:12:4138.873-8.70663783718276Clb=3.3m/s t=-64.1C h=2.5% p=71.8hPa 403.020 MHz Type=RS41-SGP ser=U2430416 Radiosonde
CT2IRJU24304162022-12-06 12:12:1938.8727-8.70764753518229Clb=4.7m/s p=72.3hPa t=-64.4C h=2.6% 403.020MHz Type=RS41-SGP rdzTTGOsonde
CT1ESY-11U24304162022-12-06 12:12:0038.8724-8.70878744118178Clb=5.4m/s t=-64.8C h=2.6% p=72.9hPa 403.020 MHz Type=RS41-SGP ser=U2430416 Radiosonde
CT1EDGU24304162022-12-06 12:11:5938.8724-8.70878744118178Clb=5.4m/s t=-64.8C h=2.6% p=72.9hPa 403.020 MHz Type=RS41-SGP ser=U2430416 Radiosonde
CT7AUS-11U24304162022-12-06 12:11:3838.8723-8.70967843018136Clb=5.4m/s t=-64.8C h=2.7% p=73.5hPa 403.020 MHz Type=RS41-SGP ser=U2430416 Radiosonde
CT2IRJU24304162022-12-06 12:11:3138.8723-8.71001824318120Clb=5.0m/s p=73.6hPa t=-64.8C h=2.7% 403.020MHz Type=RS41-SGP rdzTTGOsonde
CT2IWF-11U24304162022-12-06 12:11:3038.8723-8.71015804418115Clb=5.0m/s t=-64.8C h=2.7% p=73.7hPa 403.020 MHz Type=RS41-SGP ser=U2430416 Radiosonde
CT1EDGU24304162022-12-06 12:10:4638.8718-8.71254693918016Clb=5.5m/s t=-64.9C h=2.6% p=74.9hPa 403.020 MHz Type=RS41-SGP ser=U2430416 Radiosonde
CT1ESY-11U24304162022-12-06 12:10:4538.8717-8.71266673918011Clb=4.6m/s t=-65.0C h=2.7% p=75.0hPa 403.020 MHz Type=RS41-SGP ser=U2430416 Radiosonde
CT2IRJU24304162022-12-06 12:10:4138.8717-8.71266683918011Clb=4.6m/s p=75.0hPa t=-65.0C h=2.7% 403.020MHz Type=RS41-SGP rdzTTGOsonde
CT7ABP-10U24304162022-12-06 12:10:3038.8715-8.7132583917985Clb=4.1m/s t=-65.1C h=2.7% p=75.3hPa 403.020 MHz Type=RS41-SGP ser=U2430416 Radiosonde
CT7AUS-11U24304162022-12-06 12:10:0638.8542-8.77822804814662Clb=3.8m/s t=-60.5C h=2.4% p=129.2hPa 403.020 MHz Type=RS41-SGP ser=U2430416 Radiosonde
CT2IRJU24304162022-12-06 12:09:5838.8542-8.77837824614658Clb=5.7m/s p=129.3hPa t=-60.5C h=2.4% 403.020MHz Type=RS41-SGP rdzTTGOsonde
CT2IWF-11U24304162022-12-06 12:09:5538.8541-8.77867764614648Clb=5.4m/s t=-60.5C h=2.4% p=129.5hPa 403.020 MHz Type=RS41-SGP ser=U2430416 Radiosonde
CT1ESY-11U24304162022-12-06 12:09:2838.8539-8.78033795914599Clb=3.9m/s t=-60.6C h=2.4% p=130.5hPa 403.020 MHz Type=RS41-SGP ser=U2430416 Radiosonde
CT7ABP-10U24304162022-12-06 12:09:1938.8538-8.78089805914584Clb=5.7m/s t=-60.6C h=2.4% p=130.8hPa 403.020 MHz Type=RS41-SGP ser=U2430416 Radiosonde
CT2IRJU24304162022-12-06 12:09:0338.8537-8.78179765614562Clb=5.3m/s p=131.3hPa t=-60.5C h=2.5% 403.020MHz Type=RS41-SGP rdzTTGOsonde
CT1EDGU24304162022-12-06 12:09:0138.8536-8.78196745414557Clb=4.6m/s t=-60.5C h=2.4% p=131.4hPa 403.020 MHz Type=RS41-SGP ser=U2430416 Radiosonde
CT7AUS-11U24304162022-12-06 12:08:4738.8533-8.78346725214512Clb=4.5m/s t=-60.2C h=2.3% p=132.3hPa 403.020 MHz Type=RS41-SGP ser=U2430416 Radiosonde
CT2IWF-11U24304162022-12-06 12:08:3538.8532-8.78393705014497Clb=5.3m/s t=-60.1C h=2.4% p=132.6hPa 403.020 MHz Type=RS41-SGP ser=U2430416 Radiosonde
CT2IRJU24304162022-12-06 12:08:1338.8529-8.78517775214458Clb=3.2m/s p=133.5hPa t=-60.0C h=2.5% 403.020MHz Type=RS41-SGP rdzTTGOsonde
CT1ESY-11U24304162022-12-06 12:08:0538.8528-8.78565675014445Clb=4.2m/s t=-60.0C h=2.4% p=133.8hPa 403.020 MHz Type=RS41-SGP ser=U2430416 Radiosonde
CT7ARW-11U24304162022-12-06 12:07:4838.8525-8.78656714814417Clb=4.3m/s t=-59.9C h=2.3% p=134.3hPa 403.020 MHz Type=RS41-SGP ser=U2430416 Radiosonde
CT1EDGU24304162022-12-06 12:07:4138.8524-8.78702705014403Clb=4.8m/s t=-59.9C h=2.3% p=134.7hPa 403.020 MHz Type=RS41-SGP ser=U2430416 Radiosonde
CT7AUS-11U24304162022-12-06 12:07:2038.852-8.78834656114365Clb=4.2m/s t=-59.9C h=2.4% p=135.5hPa 403.020 MHz Type=RS41-SGP ser=U2430416 Radiosonde
CT2IRJU24304162022-12-06 12:07:1538.852-8.78852666114360Clb=5.1m/s p=135.6hPa t=-60.0C h=2.4% 403.020MHz Type=RS41-SGP rdzTTGOsonde
CT2IWF-11U24304162022-12-06 12:07:1238.8518-8.78887655914350Clb=4.4m/s t=-60.1C h=2.4% p=135.8hPa 403.020 MHz Type=RS41-SGP ser=U2430416 Radiosonde
CT1ESY-11U24304162022-12-06 12:06:4938.8512-8.79092656114295Clb=4.9m/s t=-60.2C h=2.4% p=137.0hPa 403.020 MHz Type=RS41-SGP ser=U2430416 Radiosonde
CT7ABP-10U24304162022-12-06 12:06:4838.8512-8.79092656114295Clb=4.9m/s t=-60.2C h=2.4% p=137.0hPa 403.020 MHz Type=RS41-SGP ser=U2430416 Radiosonde
CT2IRJU24304162022-12-06 12:06:3038.8507-8.79205645214262Clb=4.7m/s p=137.7hPa t=-60.4C h=2.6% 403.020MHz Type=RS41-SGP rdzTTGOsonde
CT7AUS-11U24304162022-12-06 12:06:1338.8501-8.79339595014220Clb=4.5m/s t=-60.2C h=2.6% p=138.7hPa 403.020 MHz Type=RS41-SGP ser=U2430416 Radiosonde
CT2IWF-11U24304162022-12-06 12:06:0338.8499-8.7938604814205Clb=5.1m/s t=-60.1C h=2.6% p=139.0hPa 403.020 MHz Type=RS41-SGP ser=U2430416 Radiosonde
CT2IRJU24304162022-12-06 12:05:4038.8494-8.79514665214163Clb=4.9m/s p=140.0hPa t=-59.9C h=2.8% 403.020MHz Type=RS41-SGP rdzTTGOsonde
CT1ESY-11U24304162022-12-06 12:05:3338.8492-8.79572635014143Clb=6.4m/s t=-59.8C h=2.8% p=140.4hPa 403.020 MHz Type=RS41-SGP ser=U2430416 Radiosonde
CT7ARW-11U24304162022-12-06 12:05:1638.8488-8.79663665214114Clb=5.6m/s t=-59.8C h=2.8% p=141.0hPa 403.020 MHz Type=RS41-SGP ser=U2430416 Radiosonde
CT1EDGU24304162022-12-06 12:05:1538.8486-8.79741755014089Clb=3.8m/s t=-60.1C h=3.0% p=141.6hPa 403.020 MHz Type=RS41-SGP ser=U2430416 Radiosonde
CT7AUS-11U24304162022-12-06 12:04:5438.8485-8.79803674814072Clb=4.2m/s t=-60.2C h=3.0% p=142.0hPa 403.020 MHz Type=RS41-SGP ser=U2430416 Radiosonde
CT2IRJU24304162022-12-06 12:04:5038.8484-8.79817665014067Clb=4.6m/s p=142.1hPa t=-60.2C h=3.0% 403.020MHz Type=RS41-SGP rdzTTGOsonde
CT2IWF-11U24304162022-12-06 12:04:4738.8483-8.79846605014058Clb=3.4m/s t=-60.1C h=3.0% p=142.3hPa 403.020 MHz Type=RS41-SGP ser=U2430416 Radiosonde
CT7ABP-10U24304162022-12-06 12:04:1838.8477-8.80005604814004Clb=4.4m/s t=-60.3C h=3.1% p=143.5hPa 403.020 MHz Type=RS41-SGP ser=U2430416 Radiosonde
CT1ESY-11U24304162022-12-06 12:04:1138.8475-8.80043534413992Clb=5.0m/s t=-60.3C h=3.1% p=143.8hPa 403.020 MHz Type=RS41-SGP ser=U2430416 Radiosonde
CT2IRJU24304162022-12-06 12:03:5638.8472-8.80103674413968Clb=5.2m/s p=144.4hPa t=-60.2C h=3.2% 403.020MHz Type=RS41-SGP rdzTTGOsonde
CT7ARW-11U24304162022-12-06 12:03:5438.8472-8.80117674613963Clb=4.7m/s t=-60.2C h=3.1% p=144.5hPa 403.020 MHz Type=RS41-SGP ser=U2430416 Radiosonde
CT7AUS-11U24304162022-12-06 12:03:3638.8468-8.80223624313928Clb=4.4m/s t=-60.0C h=3.0% p=145.3hPa 403.020 MHz Type=RS41-SGP ser=U2430416 Radiosonde
CT2IWF-11U24304162022-12-06 12:03:2938.8466-8.8027604313907Clb=3.9m/s t=-59.9C h=3.1% p=145.8hPa 403.020 MHz Type=RS41-SGP ser=U2430416 Radiosonde
CT2IRJU24304162022-12-06 12:03:0638.8461-8.80369544413870Clb=5.3m/s p=146.7hPa t=-59.9C h=3.1% 403.020MHz Type=RS41-SGP rdzTTGOsonde
CT1ESY-11U24304162022-12-06 12:02:5538.8458-8.8043573713840Clb=4.8m/s t=-59.7C h=3.0% p=147.4hPa 403.020 MHz Type=RS41-SGP ser=U2430416 Radiosonde
CT1EDGU24304162022-12-06 12:02:4538.8455-8.80498613913810Clb=4.0m/s t=-59.5C h=3.0% p=148.1hPa 403.020 MHz Type=RS41-SGP ser=U2430416 Radiosonde
CT7AUS-11U24304162022-12-06 12:02:2738.845-8.80584603713769Clb=4.7m/s t=-59.4C h=3.1% p=149.1hPa 403.020 MHz Type=RS41-SGP ser=U2430416 Radiosonde
CT2IRJU24304162022-12-06 12:02:2238.845-8.80594633913764Clb=4.6m/s p=149.1hPa t=-59.4C h=3.1% 403.020MHz Type=RS41-SGP rdzTTGOsonde
CT2IWF-11U24304162022-12-06 12:02:2138.8449-8.80617613913754Clb=4.4m/s t=-59.4C h=3.0% p=149.4hPa 403.020 MHz Type=RS41-SGP ser=U2430416 Radiosonde
CT7ABP-10U24304162022-12-06 12:01:5938.8444-8.80718594313711Clb=3.8m/s t=-59.0C h=3.0% p=150.4hPa 403.020 MHz Type=RS41-SGP ser=U2430416 Radiosonde
CT1ESY-11U24304162022-12-06 12:01:4738.8441-8.8079633913683Clb=4.1m/s t=-58.8C h=3.0% p=151.1hPa 403.020 MHz Type=RS41-SGP ser=U2430416 Radiosonde
CT1EDGU24304162022-12-06 12:01:3838.8439-8.80836574113664Clb=5.5m/s t=-58.7C h=3.0% p=151.6hPa 403.020 MHz Type=RS41-SGP ser=U2430416 Radiosonde
CT2IRJU24304162022-12-06 12:01:3638.8439-8.80836594113664Clb=5.5m/s p=151.6hPa t=-58.7C h=3.0% 403.020MHz Type=RS41-SGP rdzTTGOsonde
CT7AUS-11U24304162022-12-06 12:01:2038.8435-8.80937623913620Clb=4.8m/s t=-58.3C h=2.9% p=152.6hPa 403.020 MHz Type=RS41-SGP ser=U2430416 Radiosonde
CT2IWF-11U24304162022-12-06 12:01:1338.8433-8.80981603713602Clb=5.1m/s t=-58.3C h=2.9% p=153.0hPa 403.020 MHz Type=RS41-SGP ser=U2430416 Radiosonde
CT2IRJU24304162022-12-06 12:00:5338.8429-8.81069623713565Clb=4.5m/s p=153.9hPa t=-58.2C h=2.9% 403.020MHz Type=RS41-SGP rdzTTGOsonde
CT1ESY-11U24304162022-12-06 12:00:4038.8426-8.81139633513533Clb=5.1m/s t=-58.1C h=3.0% p=154.7hPa 403.020 MHz Type=RS41-SGP ser=U2430416 Radiosonde
CT1EDGU24304162022-12-06 12:00:3338.8425-8.81169683313517Clb=6.3m/s t=-58.0C h=3.1% p=155.1hPa 403.020 MHz Type=RS41-SGP ser=U2430416 Radiosonde
CT7AUS-11U24304162022-12-06 12:00:1538.8422-8.81266673713474Clb=4.7m/s t=-57.9C h=2.9% p=156.2hPa 403.020 MHz Type=RS41-SGP ser=U2430416 Radiosonde
CT2IRJU24304162022-12-06 11:59:5938.8421-8.81288693713465Clb=5.1m/s p=156.5hPa t=-57.8C h=3.0% 403.020MHz Type=RS41-SGP rdzTTGOsonde
CT7ABP-10U24304162022-12-06 11:59:3938.8418-8.814713913423Clb=5.0m/s t=-57.8C h=3.0% p=157.4hPa 403.020 MHz Type=RS41-SGP ser=U2430416 Radiosonde
CT1ESY-11U24304162022-12-06 11:59:1538.8415-8.81518774413382Clb=5.4m/s t=-57.6C h=3.0% p=158.5hPa 403.020 MHz Type=RS41-SGP ser=U2430416 Radiosonde
CT2IRJU24304162022-12-06 11:59:0638.8415-8.81546804613372Clb=5.0m/s p=158.7hPa t=-57.7C h=3.1% 403.020MHz Type=RS41-SGP rdzTTGOsonde
CT7AUS-11U24304162022-12-06 11:58:4638.8412-8.81683785013331Clb=3.9m/s t=-57.8C h=3.1% p=159.8hPa 403.020 MHz Type=RS41-SGP ser=U2430416 Radiosonde
CT2IWF-11U24304162022-12-06 11:58:3938.8411-8.81732805213316Clb=7.1m/s t=-57.8C h=3.1% p=160.1hPa 403.020 MHz Type=RS41-SGP ser=U2430416 Radiosonde
CT2IRJU24304162022-12-06 11:58:1338.841-8.8189816113273Clb=3.3m/s p=161.2hPa t=-57.9C h=3.3% 403.020MHz Type=RS41-SGP rdzTTGOsonde
CT1ESY-11U24304162022-12-06 11:57:4738.8408-8.8207806713232Clb=5.3m/s t=-57.8C h=3.3% p=162.3hPa 403.020 MHz Type=RS41-SGP ser=U2430416 Radiosonde
CT1EDGU24304162022-12-06 11:57:4538.8407-8.82092796913227Clb=4.1m/s t=-57.9C h=3.3% p=162.4hPa 403.020 MHz Type=RS41-SGP ser=U2430416 Radiosonde
CT7AUS-11U24304162022-12-06 11:57:2538.8405-8.82284797013188Clb=4.4m/s t=-58.0C h=3.5% p=163.4hPa 403.020 MHz Type=RS41-SGP ser=U2430416 Radiosonde
CT2IRJU24304162022-12-06 11:57:2038.8404-8.82306787213185Clb=2.5m/s p=163.6hPa t=-57.9C h=3.5% 403.020MHz Type=RS41-SGP rdzTTGOsonde
CT2IWF-11U24304162022-12-06 11:57:1838.8403-8.8235737013176Clb=3.3m/s t=-58.0C h=3.6% p=163.7hPa 403.020 MHz Type=RS41-SGP ser=U2430416 Radiosonde
CT7ABP-10U24304162022-12-06 11:57:0438.84-8.82507767613146Clb=3.1m/s t=-57.9C h=3.6% p=164.5hPa 403.020 MHz Type=RS41-SGP ser=U2430416 Radiosonde
CT2IRJU24304162022-12-06 11:56:3938.8394-8.82762727413098Clb=4.2m/s p=165.7hPa t=-57.8C h=3.7% 403.020MHz Type=RS41-SGP rdzTTGOsonde
CT1EDGU24304162022-12-06 11:56:3838.8394-8.82785707413093Clb=5.2m/s t=-57.8C h=3.7% p=165.9hPa 403.020 MHz Type=RS41-SGP ser=U2430416 Radiosonde
CT7AUS-11U24304162022-12-06 11:56:2138.8388-8.82985707013053Clb=5.2m/s t=-58.1C h=4.0% p=166.9hPa 403.020 MHz Type=RS41-SGP ser=U2430416 Radiosonde
CT2IWF-11U24304162022-12-06 11:56:1438.8387-8.83049707013040Clb=4.5m/s t=-58.1C h=4.1% p=167.3hPa 403.020 MHz Type=RS41-SGP ser=U2430416 Radiosonde
CT2IRJU24304162022-12-06 11:55:5838.8383-8.83209777613013Clb=3.6m/s p=168.0hPa t=-58.2C h=4.2% 403.020MHz Type=RS41-SGP rdzTTGOsonde
CT1EDGU24304162022-12-06 11:55:3338.8377-8.83473736912959Clb=5.1m/s t=-58.0C h=4.3% p=169.4hPa 403.020 MHz Type=RS41-SGP ser=U2430416 Radiosonde
CT1ESY-11U24304162022-12-06 11:55:3038.8376-8.83517737012951Clb=3.7m/s t=-58.0C h=4.4% p=169.7hPa 403.020 MHz Type=RS41-SGP ser=U2430416 Radiosonde
CT2IRJU24304162022-12-06 11:55:1238.8372-8.83667687212920Clb=4.7m/s p=170.6hPa t=-58.0C h=4.7% 403.020MHz Type=RS41-SGP rdzTTGOsonde
CT7ABP-10U24304162022-12-06 11:54:5138.8366-8.83861647012882Clb=5.5m/s t=-58.1C h=4.8% p=171.6hPa 403.020 MHz Type=RS41-SGP ser=U2430416 Radiosonde
CT2IRJU24304162022-12-06 11:54:1838.8357-8.84102636312826Clb=4.5m/s p=173.1hPa t=-58.1C h=5.2% 403.020MHz Type=RS41-SGP rdzTTGOsonde
CT1EDGU24304162022-12-06 11:54:1738.8356-8.8412625912822Clb=3.8m/s t=-58.2C h=5.3% p=173.3hPa 403.020 MHz Type=RS41-SGP ser=U2430416 Radiosonde
CT1ESY-11U24304162022-12-06 11:54:1238.8354-8.84172635912809Clb=3.5m/s t=-58.2C h=5.4% p=173.6hPa 403.020 MHz Type=RS41-SGP ser=U2430416 Radiosonde
CT7AUS-11U24304162022-12-06 11:54:0338.835-8.84273585912782Clb=3.8m/s t=-58.1C h=5.4% p=174.3hPa 403.020 MHz Type=RS41-SGP ser=U2430416 Radiosonde
CT2IWF-11U24304162022-12-06 11:53:5338.8347-8.84345666312764Clb=5.3m/s t=-58.2C h=5.3% p=174.8hPa 403.020 MHz Type=RS41-SGP ser=U2430416 Radiosonde
CT2IRJU24304162022-12-06 11:53:3338.8343-8.84459666712738Clb=5.0m/s p=175.6hPa t=-58.5C h=5.9% 403.020MHz Type=RS41-SGP rdzTTGOsonde
CT1EDGU24304162022-12-06 11:53:0138.8333-8.84686606712683Clb=4.0m/s t=-58.1C h=5.9% p=177.1hPa 403.020 MHz Type=RS41-SGP ser=U2430416 Radiosonde
CT1ESY-11U24304162022-12-06 11:52:5338.833-8.8476596112665Clb=3.8m/s t=-58.3C h=5.9% p=177.6hPa 403.020 MHz Type=RS41-SGP ser=U2430416 Radiosonde
CT7AUS-11U24304162022-12-06 11:52:3938.8326-8.84841555912642Clb=5.2m/s t=-58.1C h=5.9% p=178.2hPa 403.020 MHz Type=RS41-SGP ser=U2430416 Radiosonde
CT7ARW-11U24304162022-12-06 11:52:3738.8325-8.84858586312638Clb=3.9m/s t=-58.1C h=5.9% p=178.4hPa 403.020 MHz Type=RS41-SGP ser=U2430416 Radiosonde
CT7ABP-10U24304162022-12-06 11:52:2038.832-8.84983616512607Clb=4.7m/s t=-58.2C h=6.2% p=179.3hPa 403.020 MHz Type=RS41-SGP ser=U2430416 Radiosonde
CT2IRJU24304162022-12-06 11:51:5538.8312-8.85164665212557Clb=4.2m/s p=180.7hPa t=-58.8C h=6.2% 403.020MHz Type=RS41-SGP rdzTTGOsonde
CT1EDGU24304162022-12-06 11:51:5338.8311-8.8521645412543Clb=5.5m/s t=-58.9C h=6.6% p=181.1hPa 403.020 MHz Type=RS41-SGP ser=U2430416 Radiosonde
CT1ESY-11U24304162022-12-06 11:51:4938.8308-8.85289685612521Clb=4.9m/s t=-59.2C h=7.0% p=181.7hPa 403.020 MHz Type=RS41-SGP ser=U2430416 Radiosonde
CT7AUS-11U24304162022-12-06 11:51:4638.8306-8.85356765612500Clb=6.3m/s t=-59.6C h=7.1% p=182.3hPa 403.020 MHz Type=RS41-SGP ser=U2430416 Radiosonde
CT2IWF-11U24304162022-12-06 11:51:4538.8303-8.85578855612442Clb=4.2m/s t=-60.0C h=7.6% p=184.0hPa 403.020 MHz Type=RS41-SGP ser=U2430416 Radiosonde
CT1EDGU24304162022-12-06 11:51:3038.8301-8.85832815712378Clb=4.3m/s t=-59.9C h=8.0% p=185.9hPa 403.020 MHz Type=RS41-SGP ser=U2430416 Radiosonde
CT1ESY-11U24304162022-12-06 11:51:2338.83-8.85887795912361Clb=6.0m/s t=-59.9C h=8.1% p=186.4hPa 403.020 MHz Type=RS41-SGP ser=U2430416 Radiosonde
CT2IRJU24304162022-12-06 11:51:2038.83-8.85928846712352Clb=4.7m/s p=186.7hPa t=-59.8C h=8.2% 403.020MHz Type=RS41-SGP rdzTTGOsonde
CT7AUS-11U24304162022-12-06 11:51:1938.83-8.85949836512346Clb=5.6m/s t=-59.7C h=8.2% p=186.9hPa 403.020 MHz Type=RS41-SGP ser=U2430416 Radiosonde
CT2IWF-11U24304162022-12-06 11:51:1438.8299-8.86011846512332Clb=4.1m/s t=-59.6C h=8.5% p=187.3hPa 403.020 MHz Type=RS41-SGP ser=U2430416 Radiosonde
CT7ABP-10U24304162022-12-06 11:51:0638.8298-8.86103825412307Clb=6.6m/s t=-59.4C h=8.0% p=188.0hPa 403.020 MHz Type=RS41-SGP ser=U2430416 Radiosonde
CT2IRJU24304162022-12-06 11:50:5238.8295-8.86339806712244Clb=4.2m/s p=189.9hPa t=-59.9C h=8.9% 403.020MHz Type=RS41-SGP rdzTTGOsonde
CT1EDGU24304162022-12-06 11:50:5138.8294-8.86401796312229Clb=5.0m/s t=-59.8C h=9.0% p=190.4hPa 403.020 MHz Type=RS41-SGP ser=U2430416 Radiosonde
CT1ESY-11U24304162022-12-06 11:50:4838.8292-8.86519756112201Clb=4.1m/s t=-59.7C h=9.2% p=191.2hPa 403.020 MHz Type=RS41-SGP ser=U2430416 Radiosonde
CT7AUS-11U24304162022-12-06 11:50:4738.8291-8.86558786312193Clb=4.6m/s t=-59.7C h=9.4% p=191.5hPa 403.020 MHz Type=RS41-SGP ser=U2430416 Radiosonde
CT2IRJU24304162022-12-06 11:50:4538.8289-8.86752835712146Clb=4.4m/s p=193.0hPa t=-59.8C h=10.1% 403.020MHz Type=RS41-SGP rdzTTGOsonde
CT1EDGU24304162022-12-06 11:50:2838.8286-8.86987835412086Clb=5.1m/s t=-59.7C h=10.7% p=194.9hPa 403.020 MHz Type=RS41-SGP ser=U2430416 Radiosonde
CT1ESY-11U24304162022-12-06 11:50:1938.8285-8.87104825212053Clb=5.8m/s t=-59.6C h=11.3% p=195.9hPa 403.020 MHz Type=RS41-SGP ser=U2430416 Radiosonde
CT2IRJU24304162022-12-06 11:50:1838.8285-8.87104835412053Clb=5.8m/s p=195.9hPa t=-59.6C h=11.4% 403.020MHz Type=RS41-SGP rdzTTGOsonde
CT2IWF-11U24304162022-12-06 11:50:1338.8284-8.87172825412033Clb=4.9m/s t=-59.5C h=11.8% p=196.5hPa 403.020 MHz Type=RS41-SGP ser=U2430416 Radiosonde
CT7ARW-11U24304162022-12-06 11:50:1138.8284-8.87206805212024Clb=3.8m/s t=-59.4C h=12.1% p=196.8hPa 403.020 MHz Type=RS41-SGP ser=U2430416 Radiosonde
CT7ABP-10U24304162022-12-06 11:50:1038.8283-8.87239805212015Clb=4.2m/s t=-59.4C h=12.2% p=197.1hPa 403.020 MHz Type=RS41-SGP ser=U2430416 Radiosonde
CT2IRJU24304162022-12-06 11:50:0038.8281-8.87442795911951Clb=5.5m/s p=199.0hPa t=-59.1C h=13.8% 403.020MHz Type=RS41-SGP rdzTTGOsonde
CT1ESY-11U24304162022-12-06 11:49:5938.8278-8.87633815611890Clb=6.0m/s t=-59.1C h=15.8% p=201.0hPa 403.020 MHz Type=RS41-SGP ser=U2430416 Radiosonde
CT7ARW-11U24304162022-12-06 11:49:5738.8277-8.87742815711860Clb=5.4m/s t=-59.3C h=17.2% p=201.9hPa 403.020 MHz Type=RS41-SGP ser=U2430416 Radiosonde
CT2IRJU24304162022-12-06 11:49:5638.8276-8.87799806111846Clb=5.1m/s p=202.5hPa t=-59.5C h=17.8% 403.020MHz Type=RS41-SGP rdzTTGOsonde
CT1EDGU24304162022-12-06 11:49:5238.8272-8.88078786911777Clb=4.7m/s t=-59.6C h=20.2% p=204.7hPa 403.020 MHz Type=RS41-SGP ser=U2430416 Radiosonde
CT2IRJU24304162022-12-06 11:49:5038.8269-8.88234796911743Clb=6.2m/s p=205.8hPa t=-59.9C h=21.5% 403.020MHz Type=RS41-SGP rdzTTGOsonde
CT7AUS-11U24304162022-12-06 11:49:4938.8268-8.88255746711737Clb=5.9m/s t=-59.9C h=21.7% p=206.0hPa 403.020 MHz Type=RS41-SGP ser=U2430416 Radiosonde
CT7ABP-10U24304162022-12-06 11:49:4838.8266-8.88355666111711Clb=4.7m/s t=-59.7C h=22.0% p=206.8hPa 403.020 MHz Type=RS41-SGP ser=U2430416 Radiosonde
CT7ARW-11U24304162022-12-06 11:49:4738.8265-8.88391686311702Clb=4.8m/s t=-59.8C h=22.5% p=207.2hPa 403.020 MHz Type=RS41-SGP ser=U2430416 Radiosonde
CT2IRJU24304162022-12-06 11:49:4338.8256-8.8868657811636Clb=3.6m/s p=209.4hPa t=-59.5C h=24.7% 403.020MHz Type=RS41-SGP rdzTTGOsonde
CT1EDGU24304162022-12-06 11:49:4138.8251-8.88792637611613Clb=3.3m/s t=-59.3C h=27.1% p=210.1hPa 403.020 MHz Type=RS41-SGP ser=U2430416 Radiosonde
CT7AUS-11U24304162022-12-06 11:49:2938.8247-8.88933657411584Clb=3.2m/s t=-59.6C h=29.1% p=211.1hPa 403.020 MHz Type=RS41-SGP ser=U2430416 Radiosonde
CT1ESY-11U24304162022-12-06 11:49:2838.8245-8.88976637411575Clb=6.0m/s t=-59.6C h=29.4% p=211.4hPa 403.020 MHz Type=RS41-SGP ser=U2430416 Radiosonde
CT2IWF-11U24304162022-12-06 11:49:2738.8244-8.88998647411570Clb=4.7m/s t=-59.6C h=30.1% p=211.6hPa 403.020 MHz Type=RS41-SGP ser=U2430416 Radiosonde
CT2IRJU24304162022-12-06 11:49:2038.824-8.8914788511542Clb=5.5m/s p=212.5hPa t=-59.4C h=30.5% 403.020MHz Type=RS41-SGP rdzTTGOsonde
CT1EDGU24304162022-12-06 11:49:0338.8232-8.89477708011480Clb=5.2m/s t=-60.0C h=36.6% p=214.8hPa 403.020 MHz Type=RS41-SGP ser=U2430416 Radiosonde
CT2IRJU24304162022-12-06 11:48:5938.8227-8.89646648111445Clb=6.6m/s p=216.0hPa t=-60.3C h=39.3% 403.020MHz Type=RS41-SGP rdzTTGOsonde
CT1ESY-11U24304162022-12-06 11:48:5838.8224-8.89734736511422Clb=7.1m/s t=-60.7C h=42.1% p=216.7hPa 403.020 MHz Type=RS41-SGP ser=U2430416 Radiosonde
CT2IRJU24304162022-12-06 11:48:5138.8215-8.90079688011316Clb=6.9m/s p=220.4hPa t=-63.0C h=59.7% 403.020MHz Type=RS41-SGP rdzTTGOsonde
CT1EDGU24304162022-12-06 11:48:5038.8212-8.9019769811283Clb=6.9m/s t=-62.7C h=60.4% p=221.5hPa 403.020 MHz Type=RS41-SGP ser=U2430416 Radiosonde
CT2IRJU24304162022-12-06 11:48:4938.82-8.90634648711166Clb=8.7m/s p=225.8hPa t=-61.5C h=58.3% 403.020MHz Type=RS41-SGP rdzTTGOsonde
CT1EDGU24304162022-12-06 11:48:4838.8188-8.9099708311068Clb=4.7m/s t=-60.6C h=55.6% p=229.3hPa 403.020 MHz Type=RS41-SGP ser=U2430416 Radiosonde
CT7ARW-11U24304162022-12-06 11:48:4738.8169-8.91513668710952Clb=6.0m/s t=-59.5C h=54.9% p=233.7hPa 403.020 MHz Type=RS41-SGP ser=U2430416 Radiosonde
CT1EDGU24304162022-12-06 11:48:4538.816-8.9176669410898Clb=4.7m/s t=-59.0C h=56.1% p=235.6hPa 403.020 MHz Type=RS41-SGP ser=U2430416 Radiosonde
CT7AUS-11U24304162022-12-06 11:48:4438.8153-8.92003648310845Clb=7.6m/s t=-58.5C h=55.2% p=237.6hPa 403.020 MHz Type=RS41-SGP ser=U2430416 Radiosonde
CT1EDGU24304162022-12-06 11:48:4338.8132-8.92557649610720Clb=7.5m/s t=-57.3C h=57.8% p=242.4hPa 403.020 MHz Type=RS41-SGP ser=U2430416 Radiosonde
CT7AUS-11U24304162022-12-06 11:48:4238.8123-8.92761648110667Clb=9.6m/s t=-56.8C h=54.7% p=244.5hPa 403.020 MHz Type=RS41-SGP ser=U2430416 Radiosonde
CT2IRJU24304162022-12-06 11:48:4138.8107-8.93234658710538Clb=10.3m/s p=249.5hPa t=-55.5C h=55.7% 403.020MHz Type=RS41-SGP rdzTTGOsonde
CT7AUS-11U24304162022-12-06 11:48:4038.8094-8.93551627810458Clb=4.2m/s t=-54.8C h=58.6% p=252.6hPa 403.020 MHz Type=RS41-SGP ser=U2430416 Radiosonde
CT7ARW-11U24304162022-12-06 11:48:3938.8079-8.93916618510371Clb=8.6m/s t=-54.0C h=60.1% p=256.1hPa 403.020 MHz Type=RS41-SGP ser=U2430416 Radiosonde
CT2IRJU24304162022-12-06 11:48:3838.8065-8.94235619110291Clb=6.0m/s p=259.4hPa t=-53.2C h=60.7% 403.020MHz Type=RS41-SGP rdzTTGOsonde
CT7ARW-11U24304162022-12-06 11:48:3738.8046-8.94707628110178Clb=7.0m/s t=-52.2C h=64.1% p=264.0hPa 403.020 MHz Type=RS41-SGP ser=U2430416 Radiosonde
CT1EDGU24304162022-12-06 11:48:3638.8039-8.94869558510144Clb=5.8m/s t=-51.8C h=62.3% p=265.4hPa 403.020 MHz Type=RS41-SGP ser=U2430416 Radiosonde
CT7AUS-11U24304162022-12-06 11:48:3538.8032-8.95068668910095Clb=8.6m/s t=-51.4C h=62.2% p=267.4hPa 403.020 MHz Type=RS41-SGP ser=U2430416 Radiosonde
CT2IWF-11U24304162022-12-06 11:48:3438.8029-8.9514598710075Clb=6.3m/s t=-51.2C h=61.0% p=268.2hPa 403.020 MHz Type=RS41-SGP ser=U2430416 Radiosonde
CT1ESY-11U24304162022-12-06 11:48:2938.8023-8.95312617610022Clb=12.2m/s t=-50.7C h=57.3% p=270.4hPa 403.020 MHz Type=RS41-SGP ser=U2430416 Radiosonde
CT7ARW-11U24304162022-12-06 11:48:2238.8017-8.9544962769969Clb=6.4m/s t=-50.2C h=58.3% p=272.6hPa 403.020 MHz Type=RS41-SGP ser=U2430416 Radiosonde
CT1EDGU24304162022-12-06 11:48:0838.801-8.95661769924Clb=5.8m/s t=-49.8C h=57.8% p=274.5hPa 403.020 MHz Type=RS41-SGP ser=U2430416 Radiosonde
CT7ABP-10U24304162022-12-06 11:47:5038.8004-8.9575762819883Clb=8.8m/s t=-49.4C h=61.7% p=276.3hPa 403.020 MHz Type=RS41-SGP ser=U2430416 Radiosonde
CT7AUS-11U24304162022-12-06 11:47:4938.8003-8.9578163859876Clb=5.0m/s t=-49.4C h=62.1% p=276.5hPa 403.020 MHz Type=RS41-SGP ser=U2430416 Radiosonde
CT2IWF-11U24304162022-12-06 11:47:4238.7999-8.95861591009860Clb=4.6m/s t=-49.2C h=61.3% p=277.1hPa 403.020 MHz Type=RS41-SGP ser=U2430416 Radiosonde
CT1ESY-11U24304162022-12-06 11:47:2538.799-8.9603665619809Clb=8.2m/s t=-48.9C h=61.1% p=279.3hPa 403.020 MHz Type=RS41-SGP ser=U2430416 Radiosonde
CT2IRJU24304162022-12-06 11:47:2338.799-8.9603667639809Clb=8.2m/s p=279.3hPa t=-48.9C h=61.1% 403.020MHz Type=RS41-SGP rdzTTGOsonde
CT7ARW-11U24304162022-12-06 11:47:1338.7986-8.9618267839761Clb=8.5m/s t=-48.4C h=62.1% p=281.3hPa 403.020 MHz Type=RS41-SGP ser=U2430416 Radiosonde
CT1EDGU24304162022-12-06 11:46:5838.7982-8.96376659716Clb=6.0m/s t=-48.1C h=63.1% p=283.2hPa 403.020 MHz Type=RS41-SGP ser=U2430416 Radiosonde
CT7AUS-11U24304162022-12-06 11:46:4338.7978-8.9647867769662Clb=6.8m/s t=-47.6C h=61.9% p=285.5hPa 403.020 MHz Type=RS41-SGP ser=U2430416 Radiosonde
CT2IRJU24304162022-12-06 11:46:4138.7978-8.9647868769662Clb=6.8m/s p=285.5hPa t=-47.6C h=61.9% 403.020MHz Type=RS41-SGP rdzTTGOsonde
CT2IWF-11U24304162022-12-06 11:46:3838.7975-8.9654765789645Clb=6.3m/s t=-47.4C h=61.9% p=286.3hPa 403.020 MHz Type=RS41-SGP ser=U2430416 Radiosonde
CT1ESY-11U24304162022-12-06 11:46:2238.7969-8.9673767709599Clb=4.7m/s t=-47.0C h=59.2% p=288.2hPa 403.020 MHz Type=RS41-SGP ser=U2430416 Radiosonde
CT7ARW-11U24304162022-12-06 11:46:1138.7964-8.9689272769565Clb=4.6m/s t=-46.7C h=59.7% p=289.7hPa 403.020 MHz Type=RS41-SGP ser=U2430416 Radiosonde
CT1EDGU24304162022-12-06 11:46:0138.7962-8.9698464729540Clb=7.0m/s t=-46.5C h=59.7% p=290.7hPa 403.020 MHz Type=RS41-SGP ser=U2430416 Radiosonde
CT7ABP-10U24304162022-12-06 11:45:4838.7956-8.9711869659505Clb=6.2m/s t=-46.2C h=57.1% p=292.3hPa 403.020 MHz Type=RS41-SGP ser=U2430416 Radiosonde
CT7AUS-11U24304162022-12-06 11:45:4438.7956-8.9713873659498Clb=8.5m/s t=-46.1C h=56.4% p=292.6hPa 403.020 MHz Type=RS41-SGP ser=U2430416 Radiosonde
CT2IWF-11U24304162022-12-06 11:45:4038.7954-8.9720271749473Clb=7.2m/s t=-45.9C h=57.1% p=293.7hPa 403.020 MHz Type=RS41-SGP ser=U2430416 Radiosonde
CT1ESY-11U24304162022-12-06 11:45:2038.7947-8.9742971659419Clb=5.3m/s t=-45.4C h=58.1% p=296.2hPa 403.020 MHz Type=RS41-SGP ser=U2430416 Radiosonde
CT1EDGU24304162022-12-06 11:45:0038.794-8.9769777659345Clb=4.4m/s t=-44.7C h=56.1% p=299.6hPa 403.020 MHz Type=RS41-SGP ser=U2430416 Radiosonde
CT7AUS-11U24304162022-12-06 11:44:4538.7938-8.9780871769320Clb=4.5m/s t=-44.5C h=57.9% p=300.7hPa 403.020 MHz Type=RS41-SGP ser=U2430416 Radiosonde
CT2IRJU24304162022-12-06 11:44:4138.7937-8.9783171789315Clb=5.6m/s p=301.0hPa t=-44.5C h=57.4% 403.020MHz Type=RS41-SGP rdzTTGOsonde
CT2IWF-11U24304162022-12-06 11:44:3938.7936-8.9787966819306Clb=3.0m/s t=-44.4C h=58.0% p=301.4hPa 403.020 MHz Type=RS41-SGP ser=U2430416 Radiosonde
CT1ESY-11U24304162022-12-06 11:44:1638.7931-8.9810374679234Clb=6.3m/s t=-43.8C h=54.0% p=304.6hPa 403.020 MHz Type=RS41-SGP ser=U2430416 Radiosonde
CT7ARW-11U24304162022-12-06 11:44:0338.7928-8.9823875769197Clb=4.7m/s t=-43.5C h=52.6% p=306.3hPa 403.020 MHz Type=RS41-SGP ser=U2430416 Radiosonde
CT2IRJU24304162022-12-06 11:43:5838.7927-8.9828677749188Clb=4.2m/s p=306.8hPa t=-43.4C h=52.9% 403.020MHz Type=RS41-SGP rdzTTGOsonde
CT7ABP-10U24304162022-12-06 11:43:4838.7924-8.9844676709154Clb=7.6m/s t=-43.2C h=53.8% p=308.3hPa 403.020 MHz Type=RS41-SGP ser=U2430416 Radiosonde
CT7AUS-11U24304162022-12-06 11:43:4338.7923-8.9849375769141Clb=5.0m/s t=-43.0C h=54.3% p=308.9hPa 403.020 MHz Type=RS41-SGP ser=U2430416 Radiosonde
CT2IWF-11U24304162022-12-06 11:43:3838.7922-8.9856570819126Clb=6.9m/s t=-42.9C h=53.7% p=309.7hPa 403.020 MHz Type=RS41-SGP ser=U2430416 Radiosonde
CT2IRJU24304162022-12-06 11:43:2038.7919-8.9873782709070Clb=7.6m/s p=312.1hPa t=-42.4C h=51.1% 403.020MHz Type=RS41-SGP rdzTTGOsonde
CT1ESY-11U24304162022-12-06 11:43:1438.7917-8.9883278789048Clb=5.5m/s t=-42.2C h=51.0% p=313.0hPa 403.020 MHz Type=RS41-SGP ser=U2430416 Radiosonde
CT7ARW-11U24304162022-12-06 11:43:0238.7916-8.9897378679017Clb=5.3m/s t=-42.0C h=51.6% p=314.5hPa 403.020 MHz Type=RS41-SGP ser=U2430416 Radiosonde
CT1EDGU24304162022-12-06 11:42:5838.7915-8.9901574679007Clb=6.1m/s t=-41.9C h=51.2% p=315.0hPa 403.020 MHz Type=RS41-SGP ser=U2430416 Radiosonde
CT7AUS-11U24304162022-12-06 11:42:3838.7912-8.9919383698970Clb=4.3m/s t=-41.6C h=51.7% p=316.8hPa 403.020 MHz Type=RS41-SGP ser=U2430416 Radiosonde
CT2IRJU24304162022-12-06 11:42:3438.7912-8.9921584698965Clb=6.3m/s p=316.9hPa t=-41.6C h=51.3% 403.020MHz Type=RS41-SGP rdzTTGOsonde
CT2IWF-11U24304162022-12-06 11:42:3238.7912-8.9926184748953Clb=6.5m/s t=-41.5C h=-1.0% p=317.7hPa 403.020 MHz Type=RS41-SGP ser=U2430416 Radiosonde
CS5LAS-11U24304162022-12-06 11:41:1638.7911-8.9935176658929Clb=3.0m/s 403.02MHz Type=RS41-SGP Aux[] BK=Off RS41Tracker 1.17
CT1ESY-11U24304162022-12-06 11:41:0338.7905-9.0018387598706Clb=9.4m/s t=-39.7C h=61.2% p=329.1hPa 403.020 MHz Type=RS41-SGP ser=U2430416 Radiosonde
CT2IRJU24304162022-12-06 11:40:5138.7904-9.002895548674Clb=4.7m/s p=330.6hPa t=-39.4C h=61.8% 403.020MHz Type=RS41-SGP rdzTTGOsonde
CT7ARW-11U24304162022-12-06 11:40:5038.7904-9.0029896528669Clb=6.6m/s t=-39.4C h=61.4% p=330.9hPa 403.020 MHz Type=RS41-SGP ser=U2430416 Radiosonde
CT7AUS-11U24304162022-12-06 11:40:3738.7905-9.0045195658621Clb=5.9m/s t=-39.1C h=61.4% p=333.3hPa 403.020 MHz Type=RS41-SGP ser=U2430416 Radiosonde
CS5LAS-11U24304162022-12-06 11:40:1638.7905-9.0054585528594Clb=6.2m/s 403.02MHz Type=RS41-SGP Aux[] BK=Off RS41Tracker 1.17
CT2IRJU24304162022-12-06 11:40:1438.7906-9.00683102528552Clb=5.0m/s p=336.6hPa t=-38.4C h=60.9% 403.020MHz Type=RS41-SGP rdzTTGOsonde
CT1ESY-11U24304162022-12-06 11:40:0638.7907-9.0076696568524Clb=6.1m/s t=-38.2C h=61.7% p=338.1hPa 403.020 MHz Type=RS41-SGP ser=U2430416 Radiosonde
CT1EDGU24304162022-12-06 11:39:5838.7907-9.0085992548499Clb=4.9m/s t=-38.0C h=60.9% p=339.3hPa 403.021 MHz Type=RS41-SGP ser=U2430416 Radiosonde
CT7ARW-11U24304162022-12-06 11:39:5738.7907-9.0087694528493Clb=7.5m/s t=-38.0C h=60.0% p=339.6hPa 403.020 MHz Type=RS41-SGP ser=U2430416 Radiosonde
CS5LAS-11U24304162022-12-06 11:39:5638.7907-9.0089394548487Clb=5.9m/s 403.02MHz Type=RS41-SGP Aux[] BK=Off RS41Tracker 1.17
CT7ABP-10U24304162022-12-06 11:39:5538.7907-9.0092891528476Clb=5.6m/s t=-37.9C h=60.7% p=340.4hPa 403.020 MHz Type=RS41-SGP ser=U2430416 Radiosonde
CT7AUS-11U24304162022-12-06 11:39:5038.7907-9.0101795578455Clb=4.4m/s t=-37.7C h=59.3% p=341.5hPa 403.020 MHz Type=RS41-SGP ser=U2430416 Radiosonde
CT2IRJU24304162022-12-06 11:39:4638.7908-9.0105199548446Clb=7.2m/s p=341.9hPa t=-37.6C h=57.7% 403.020MHz Type=RS41-SGP rdzTTGOsonde
CT1ESY-11U24304162022-12-06 11:39:3538.7909-9.0131897468363Clb=5.2m/s t=-37.0C h=49.7% p=346.1hPa 403.020 MHz Type=RS41-SGP ser=U2430416 Radiosonde
CT1EDGU24304162022-12-06 11:39:2938.7909-9.0137391418344Clb=5.9m/s t=-36.9C h=48.6% p=347.0hPa 403.021 MHz Type=RS41-SGP ser=U2430416 Radiosonde
CT7ARW-11U24304162022-12-06 11:39:2738.7909-9.0140192448335Clb=6.2m/s t=-36.8C h=47.5% p=347.4hPa 403.020 MHz Type=RS41-SGP ser=U2430416 Radiosonde
CT7AUS-11U24304162022-12-06 11:39:2138.7909-9.0150787448303Clb=4.0m/s t=-36.5C h=46.6% p=349.0hPa 403.020 MHz Type=RS41-SGP ser=U2430416 Radiosonde
CT2IRJU24304162022-12-06 11:39:1738.7909-9.0153693448294Clb=3.4m/s p=349.5hPa t=-36.4C h=46.5% 403.020MHz Type=RS41-SGP rdzTTGOsonde
CT1ESY-11U24304162022-12-06 11:38:5938.7909-9.0178278378219Clb=6.3m/s t=-35.7C h=45.2% p=353.3hPa 403.020 MHz Type=RS41-SGP ser=U2430416 Radiosonde
CT1EDGU24304162022-12-06 11:38:5638.7908-9.0183487468198Clb=6.2m/s t=-35.5C h=42.4% p=354.4hPa 403.021 MHz Type=RS41-SGP ser=U2430416 Radiosonde
CT7ABP-10U24304162022-12-06 11:38:5438.7908-9.0186592468187Clb=5.3m/s t=-35.5C h=40.5% p=355.0hPa 403.020 MHz Type=RS41-SGP ser=U2430416 Radiosonde
CT7ARW-11U24304162022-12-06 11:38:5338.7908-9.018894468181Clb=7.6m/s t=-35.4C h=39.7% p=355.3hPa 403.020 MHz Type=RS41-SGP ser=U2430416 Radiosonde
CT2IRJU24304162022-12-06 11:38:4938.7908-9.019193448169Clb=4.6m/s p=355.9hPa t=-35.3C h=38.9% 403.020MHz Type=RS41-SGP rdzTTGOsonde
CT7AUS-11U24304162022-12-06 11:38:4838.7908-9.0195281438156Clb=6.5m/s t=-35.2C h=38.1% p=356.6hPa 403.020 MHz Type=RS41-SGP ser=U2430416 Radiosonde
CS5LAS-11U24304162022-12-06 11:38:3638.7908-9.0208878448096Clb=6.4m/s 403.02MHz Type=RS41-SGP Aux[] BK=Off RS41Tracker 1.17
CT1ESY-11U24304162022-12-06 11:38:2738.7906-9.0221787358045Clb=6.4m/s t=-34.3C h=40.1% p=362.2hPa 403.020 MHz Type=RS41-SGP ser=U2430416 Radiosonde
CT1EDGU24304162022-12-06 11:38:2538.7906-9.0225379418024Clb=5.3m/s t=-34.1C h=39.6% p=363.2hPa 403.021 MHz Type=RS41-SGP ser=U2430416 Radiosonde
CT7ARW-11U24304162022-12-06 11:38:2238.7905-9.0231277468003Clb=7.0m/s t=-33.9C h=38.6% p=364.4hPa 403.020 MHz Type=RS41-SGP ser=U2430416 Radiosonde
CT7AUS-11U24304162022-12-06 11:38:1838.7904-9.0236580337976Clb=4.6m/s t=-33.7C h=38.0% p=365.7hPa 403.020 MHz Type=RS41-SGP ser=U2430416 Radiosonde
CT2IRJU24304162022-12-06 11:38:1038.7904-9.0242778377943Clb=6.3m/s p=367.4hPa t=-33.4C h=37.8% 403.020MHz Type=RS41-SGP rdzTTGOsonde
CT1ESY-11U24304162022-12-06 11:37:5538.7902-9.0261884307852Clb=4.9m/s t=-32.5C h=31.3% p=372.2hPa 403.020 MHz Type=RS41-SGP ser=U2430416 Radiosonde
CT1EDGU24304162022-12-06 11:37:5438.7902-9.026485337842Clb=9.6m/s t=-32.4C h=29.9% p=372.8hPa 403.021 MHz Type=RS41-SGP ser=U2430416 Radiosonde
CT7ABP-10U24304162022-12-06 11:37:5338.7902-9.0265187337833Clb=8.2m/s t=-32.4C h=29.5% p=373.2hPa 403.020 MHz Type=RS41-SGP ser=U2430416 Radiosonde
CT7ARW-11U24304162022-12-06 11:37:4938.7902-9.0270295437811Clb=5.3m/s t=-32.1C h=28.2% p=374.4hPa 403.020 MHz Type=RS41-SGP ser=U2430416 Radiosonde
CT2IRJU24304162022-12-06 11:37:4738.7902-9.0270297447811Clb=5.3m/s p=374.4hPa t=-32.1C h=28.2% 403.020MHz Type=RS41-SGP rdzTTGOsonde
CT7AUS-11U24304162022-12-06 11:37:4638.7903-9.0274295397795Clb=7.4m/s t=-32.0C h=26.8% p=375.2hPa 403.020 MHz Type=RS41-SGP ser=U2430416 Radiosonde
CT2IRJU24304162022-12-06 11:37:2938.7902-9.0296995437704Clb=5.5m/s p=380.3hPa t=-31.1C h=23.1% 403.020MHz Type=RS41-SGP rdzTTGOsonde
CT1ESY-11U24304162022-12-06 11:37:2538.7903-9.0302492267680Clb=6.6m/s t=-30.9C h=23.5% p=381.6hPa 403.020 MHz Type=RS41-SGP ser=U2430416 Radiosonde
CT7ARW-11U24304162022-12-06 11:37:1838.7903-9.0308689397645Clb=6.0m/s t=-30.6C h=25.7% p=383.4hPa 403.020 MHz Type=RS41-SGP ser=U2430416 Radiosonde
CT7AUS-11U24304162022-12-06 11:37:1638.7903-9.0311284397636Clb=2.9m/s t=-30.6C h=27.6% p=384.0hPa 403.020 MHz Type=RS41-SGP ser=U2430416 Radiosonde
CT2IRJU24304162022-12-06 11:37:0638.7904-9.0319296357598Clb=6.2m/s p=385.9hPa t=-30.4C h=32.5% 403.020MHz Type=RS41-SGP rdzTTGOsonde
CT7ABP-10U24304162022-12-06 11:36:5238.7904-9.0338697317495Clb=5.3m/s t=-30.0C h=50.8% p=391.4hPa 403.020 MHz Type=RS41-SGP ser=U2430416 Radiosonde
CT1ESY-11U24304162022-12-06 11:36:5138.7904-9.03396101337490Clb=5.6m/s t=-30.0C h=51.8% p=391.6hPa 403.020 MHz Type=RS41-SGP ser=U2430416 Radiosonde
CT2IRJU24304162022-12-06 11:36:4538.7904-9.0344682447473Clb=5.2m/s p=392.7hPa t=-30.0C h=55.2% 403.020MHz Type=RS41-SGP rdzTTGOsonde
CT7ARW-11U24304162022-12-06 11:36:4438.7903-9.0347372417462Clb=5.0m/s t=-30.0C h=58.9% p=393.2hPa 403.020 MHz Type=RS41-SGP ser=U2430416 Radiosonde
CT7AUS-11U24304162022-12-06 11:36:4338.7903-9.0348574377458Clb=3.9m/s t=-30.0C h=59.5% p=393.4hPa 403.020 MHz Type=RS41-SGP ser=U2430416 Radiosonde
CT2IRJU24304162022-12-06 11:36:2938.7899-9.0366370397355Clb=4.5m/s p=399.2hPa t=-29.8C h=59.1% 403.020MHz Type=RS41-SGP rdzTTGOsonde
CT2IRJU24304162022-12-06 11:36:2838.789-9.03961397258Clb=7.8m/s p=405.0hPa t=-29.1C h=31.5% 403.020MHz Type=RS41-SGP rdzTTGOsonde
CT7ABP-10U24304162022-12-06 11:36:2738.7883-9.0407259467173Clb=5.9m/s t=-28.5C h=11.1% p=409.5hPa 403.020 MHz Type=RS41-SGP ser=U2430416 Radiosonde
CT7AUS-11U24304162022-12-06 11:36:2638.788-9.0417976377118Clb=3.9m/s t=-28.1C h=16.3% p=412.7hPa 403.020 MHz Type=RS41-SGP ser=U2430416 Radiosonde
CS5LAS-11U24304162022-12-06 11:35:3638.7878-9.0425359417085Clb=5.3m/s 403.02MHz Type=RS41-SGP Aux[] BK=Off RS41Tracker 1.17
CS5LAS-11U24304162022-12-06 11:34:5638.7866-9.0477980436842Clb=4.4m/s 403.02MHz Type=RS41-SGP Aux[] BK=Off RS41Tracker 1.17
CS5LAS-11U24304162022-12-06 11:34:3638.7863-9.0504582376749Clb=4.4m/s 403.02MHz Type=RS41-SGP Aux[] BK=Off RS41Tracker 1.17
CS5LAS-11U24304162022-12-06 11:34:1638.786-9.0529678376614Clb=5.4m/s 403.02MHz Type=RS41-SGP Aux[] BK=Off RS41Tracker 1.17
CS5LAS-11U24304162022-12-06 11:33:5638.7856-9.0554291416478Clb=4.7m/s 403.02MHz Type=RS41-SGP Aux[] BK=Off RS41Tracker 1.17
CS5LAS-11U24304162022-12-06 11:33:3638.7858-9.0578587436384Clb=7.8m/s 403.02MHz Type=RS41-SGP Aux[] BK=Off RS41Tracker 1.17
CS5LAS-11U24304162022-12-06 11:33:1638.7858-9.06004105356265Clb=4.2m/s 403.02MHz Type=RS41-SGP Aux[] BK=Off RS41Tracker 1.17
CS5LAS-11U24304162022-12-06 11:32:5638.7857-9.0627191506136Clb=6.1m/s 403.02MHz Type=RS41-SGP Aux[] BK=Off RS41Tracker 1.17
CS5LAS-11U24304162022-12-06 11:32:3638.7858-9.065389416023Clb=4.4m/s 403.02MHz Type=RS41-SGP Aux[] BK=Off RS41Tracker 1.17
CT2IRJU24304162022-12-06 11:32:3238.7858-9.0672593415952Clb=4.6m/s p=484.1hPa t=-19.0C h=7.8% 403.020MHz Type=RS41-SGP rdzTTGOsonde
CS5LAS-11U24304162022-12-06 11:32:1638.7858-9.0677581415930Clb=4.9m/s 403.02MHz Type=RS41-SGP Aux[] BK=Off RS41Tracker 1.17
CT7AUS-11U24304162022-12-06 11:32:0638.7858-9.0691485305870Clb=2.8m/s t=-18.5C h=8.2% p=489.4hPa 403.020 MHz Type=RS41-SGP ser=U2430416 Radiosonde
CT1ESY-11U24304162022-12-06 11:32:0338.7858-9.0692482305866Clb=5.0m/s t=-18.5C h=8.2% p=489.6hPa 403.020 MHz Type=RS41-SGP ser=U2430416 Radiosonde
CT2IWF-11U24304162022-12-06 11:32:0238.7858-9.0693485315861Clb=5.9m/s t=-18.5C h=8.3% p=489.9hPa 403.020 MHz Type=RS41-SGP ser=U2430416 Radiosonde
CT2IRJU24304162022-12-06 11:31:5938.7858-9.0695693355852Clb=3.9m/s p=490.7hPa t=-18.4C h=8.5% 403.020MHz Type=RS41-SGP rdzTTGOsonde
CT7ARW-11U24304162022-12-06 11:31:5638.7858-9.0700192335834Clb=3.9m/s t=-18.3C h=8.5% p=491.8hPa 403.020 MHz Type=RS41-SGP ser=U2430416 Radiosonde
CT7ABP-10U24304162022-12-06 11:31:4638.7859-9.0708886395792Clb=6.3m/s t=-18.0C h=8.3% p=494.6hPa 403.020 MHz Type=RS41-SGP ser=U2430416 Radiosonde
CT1EDGU24304162022-12-06 11:31:4138.7859-9.0714385265756Clb=7.7m/s t=-17.6C h=-1.0% p=497.0hPa 403.021 MHz Type=RS41-SGP ser=U2430416 Radiosonde
CT2IRJU24304162022-12-06 11:31:3938.7859-9.0716285335739Clb=9.5m/s p=497.9hPa t=-17.5C h=8.1% 403.020MHz Type=RS41-SGP rdzTTGOsonde
CS5LAS-11U24304162022-12-06 11:31:3638.7859-9.07206103315715Clb=6.9m/s 403.02MHz Type=RS41-SGP Aux[] BK=Off RS41Tracker 1.17
CT7AUS-11U24304162022-12-06 11:31:3338.7859-9.0723599305695Clb=4.9m/s t=-17.1C h=8.3% p=500.9hPa 403.020 MHz Type=RS41-SGP ser=U2430416 Radiosonde
CT2IWF-11U24304162022-12-06 11:31:3038.7859-9.0725584315685Clb=7.0m/s t=-17.0C h=8.1% p=501.5hPa 403.020 MHz Type=RS41-SGP ser=U2430416 Radiosonde
CT7ARW-11U24304162022-12-06 11:31:2438.7859-9.0733295285642Clb=7.2m/s t=-16.7C h=7.8% p=504.3hPa 403.020 MHz Type=RS41-SGP ser=U2430416 Radiosonde
CT2IRJU24304162022-12-06 11:31:1738.7859-9.0737795265615Clb=2.4m/s p=506.6hPa t=-16.5C h=7.8% 403.020MHz Type=RS41-SGP rdzTTGOsonde
CS5LAS-11U24304162022-12-06 11:31:1638.7859-9.07404105335597Clb=5.0m/s 403.02MHz Type=RS41-SGP Aux[] BK=Off RS41Tracker 1.17
CT1EDGU24304162022-12-06 11:31:1438.7859-9.0745677245560Clb=6.1m/s t=-16.6C h=-1.0% p=510.4hPa 403.021 MHz Type=RS41-SGP ser=U2430416 Radiosonde
CT7AUS-11U24304162022-12-06 11:31:1338.7859-9.0753484395522Clb=3.1m/s t=-16.4C h=10.0% p=512.9hPa 403.020 MHz Type=RS41-SGP ser=U2430416 Radiosonde
CS5LAS-11U24304162022-12-06 11:30:5638.7856-9.0758836265492Clb=6.7m/s 403.02MHz Type=RS41-SGP Aux[] BK=Off RS41Tracker 1.17
CS5LAS-11U24304162022-12-06 11:30:3638.7856-9.0774194395359Clb=5.3m/s 403.02MHz Type=RS41-SGP Aux[] BK=Off RS41Tracker 1.17
CS5LAS-11U24304162022-12-06 11:30:1638.7854-9.0801699355240Clb=5.6m/s 403.02MHz Type=RS41-SGP Aux[] BK=Off RS41Tracker 1.17
CS5LAS-11U24304162022-12-06 11:29:5638.7851-9.0822992395110Clb=6.2m/s 403.02MHz Type=RS41-SGP Aux[] BK=Off RS41Tracker 1.17
CS5LAS-11U24304162022-12-06 11:29:3638.7849-9.0844766434989Clb=4.3m/s 403.02MHz Type=RS41-SGP Aux[] BK=Off RS41Tracker 1.17
CS5LAS-11U24304162022-12-06 11:29:1638.7843-9.0865870334867Clb=4.9m/s 403.02MHz Type=RS41-SGP Aux[] BK=Off RS41Tracker 1.17
CS5LAS-11U24304162022-12-06 11:28:5638.784-9.0883965394752Clb=5.1m/s 403.02MHz Type=RS41-SGP Aux[] BK=Off RS41Tracker 1.17
CS5LAS-11U24304162022-12-06 11:28:3638.7838-9.0903557284637Clb=7.5m/s 403.02MHz Type=RS41-SGP Aux[] BK=Off RS41Tracker 1.17
CT1ESY-11U24304162022-12-06 11:28:2838.7831-9.0920369264534Clb=4.8m/s t=-8.6C h=6.0% p=583.8hPa 403.020 MHz Type=RS41-SGP ser=U2430416 Radiosonde
CS5LAS-11U24304162022-12-06 11:28:1638.7831-9.092261304526Clb=5.7m/s 403.02MHz Type=RS41-SGP Aux[] BK=Off RS41Tracker 1.17
CT2IRJU24304162022-12-06 11:28:1538.7828-9.092766394505Clb=4.6m/s p=586.1hPa t=-8.4C h=5.2% 403.020MHz Type=RS41-SGP rdzTTGOsonde
CS5LAS-11U24304162022-12-06 11:27:5638.7825-9.0938146244417Clb=4.5m/s 403.02MHz Type=RS41-SGP Aux[] BK=Off RS41Tracker 1.17
CT7AUS-11U24304162022-12-06 11:27:5538.7825-9.0938146244417Clb=4.5m/s t=-7.8C h=3.0% p=592.6hPa 403.020 MHz Type=RS41-SGP ser=U2430416 Radiosonde
CT2IWF-11U24304162022-12-06 11:27:5338.7824-9.0939551334406Clb=6.3m/s t=-7.7C h=3.1% p=593.4hPa 403.020 MHz Type=RS41-SGP ser=U2430416 Radiosonde
CT2IRJU24304162022-12-06 11:27:4938.7822-9.0942260354386Clb=6.8m/s p=594.9hPa t=-7.5C h=3.4% 403.020MHz Type=RS41-SGP rdzTTGOsonde
CT1ESY-11U24304162022-12-06 11:27:4638.782-9.0947459374360Clb=4.6m/s t=-7.2C h=3.5% p=596.9hPa 403.020 MHz Type=RS41-SGP ser=U2430416 Radiosonde
CT7ABP-10U24304162022-12-06 11:27:4238.7819-9.0950371304346Clb=5.7m/s t=-7.1C h=3.6% p=597.9hPa 403.020 MHz Type=RS41-SGP ser=U2430416 Radiosonde
CT7ARW-11U24304162022-12-06 11:27:3938.7818-9.0953768434328Clb=4.0m/s t=-7.0C h=3.5% p=599.3hPa 403.020 MHz Type=RS41-SGP ser=U2430416 Radiosonde
CS5LAS-11U24304162022-12-06 11:27:3638.7816-9.0957936334308Clb=5.8m/s 403.02MHz Type=RS41-SGP Aux[] BK=Off RS41Tracker 1.17
CT2IRJU24304162022-12-06 11:27:2938.7813-9.0961954374272Clb=6.0m/s p=603.5hPa t=-6.6C h=1.7% 403.020MHz Type=RS41-SGP rdzTTGOsonde
CT7AUS-11U24304162022-12-06 11:27:2538.7809-9.096768304236Clb=6.4m/s t=-6.4C h=1.7% p=606.1hPa 403.020 MHz Type=RS41-SGP ser=U2430416 Radiosonde
CT2IWF-11U24304162022-12-06 11:27:2338.7809-9.0967977284231Clb=4.8m/s t=-6.3C h=1.6% p=606.6hPa 403.020 MHz Type=RS41-SGP ser=U2430416 Radiosonde
CS5LAS-11U24304162022-12-06 11:27:1638.7806-9.0973952374183Clb=6.0m/s 403.02MHz Type=RS41-SGP Aux[] BK=Off RS41Tracker 1.17
CT1ESY-11U24304162022-12-06 11:27:1538.7805-9.0975758304172Clb=4.4m/s t=-5.8C h=1.7% p=610.9hPa 403.020 MHz Type=RS41-SGP ser=U2430416 Radiosonde
CT2IRJU24304162022-12-06 11:27:1038.7804-9.0979265304152Clb=5.8m/s p=612.9hPa t=-5.6C h=1.4% 403.020MHz Type=RS41-SGP rdzTTGOsonde
CT7ARW-11U24304162022-12-06 11:27:0838.7803-9.0980751284142Clb=6.3m/s t=-5.5C h=1.4% p=613.7hPa 403.020 MHz Type=RS41-SGP ser=U2430416 Radiosonde
CS5LAS-11U24304162022-12-06 11:26:5638.7799-9.0990254264071Clb=7.4m/s 403.02MHz Type=RS41-SGP Aux[] BK=Off RS41Tracker 1.17
CT2IWF-11U24304162022-12-06 11:26:5138.7798-9.0993387264044Clb=4.3m/s t=-4.9C h=2.1% p=621.5hPa 403.020 MHz Type=RS41-SGP ser=U2430416 Radiosonde
CT2IRJU24304162022-12-06 11:26:4738.7798-9.0995765264026Clb=5.2m/s p=623.0hPa t=-4.7C h=2.2% 403.020MHz Type=RS41-SGP rdzTTGOsonde
CT1ESY-11U24304162022-12-06 11:26:4238.7795-9.100158303984Clb=7.3m/s t=-4.3C h=2.3% p=626.5hPa 403.020 MHz Type=RS41-SGP ser=U2430416 Radiosonde
CT7ABP-10U24304162022-12-06 11:26:4138.7795-9.100158303984Clb=7.3m/s t=-4.3C h=2.3% p=626.5hPa 403.020 MHz Type=RS41-SGP ser=U2430416 Radiosonde
CS5LAS-11U24304162022-12-06 11:26:3638.7794-9.1005970333953Clb=4.6m/s 403.02MHz Type=RS41-SGP Aux[] BK=Off RS41Tracker 1.17
CT7ARW-11U24304162022-12-06 11:26:3538.7794-9.1005970313953Clb=4.6m/s t=-4.0C h=2.4% p=628.9hPa 403.020 MHz Type=RS41-SGP ser=U2430416 Radiosonde
CT2IRJU24304162022-12-06 11:26:2638.7791-9.1013356283904Clb=6.8m/s p=632.7hPa t=-3.6C h=2.8% 403.020MHz Type=RS41-SGP rdzTTGOsonde
CT7AUS-11U24304162022-12-06 11:26:2538.7789-9.1018869263866Clb=6.5m/s t=-3.3C h=2.8% p=635.6hPa 403.020 MHz Type=RS41-SGP ser=U2430416 Radiosonde
CT2IWF-11U24304162022-12-06 11:26:2038.7789-9.1019660283860Clb=5.4m/s t=-3.3C h=2.9% p=636.1hPa 403.020 MHz Type=RS41-SGP ser=U2430416 Radiosonde
CS5LAS-11U24304162022-12-06 11:26:1638.7787-9.1024257263829Clb=6.5m/s 403.02MHz Type=RS41-SGP Aux[] BK=Off RS41Tracker 1.17
CS5LAS-11U24304162022-12-06 11:25:5638.7779-9.1043360413711Clb=3.7m/s 403.02MHz Type=RS41-SGP Aux[] BK=Off RS41Tracker 1.17
CS5LAS-11U24304162022-12-06 11:25:3638.7773-9.1064369443589Clb=6.5m/s 403.02MHz Type=RS41-SGP Aux[] BK=Off RS41Tracker 1.17
CS5LAS-11U24304162022-12-06 11:25:1638.7768-9.1083186283470Clb=6.2m/s 403.02MHz Type=RS41-SGP Aux[] BK=Off RS41Tracker 1.17
CS5LAS-11U24304162022-12-06 11:24:5638.7767-9.110392373343Clb=7.3m/s 403.02MHz Type=RS41-SGP Aux[] BK=Off RS41Tracker 1.17
CS5LAS-11U24304162022-12-06 11:24:3638.7764-9.1119478153226Clb=5.4m/s 403.02MHz Type=RS41-SGP Aux[] BK=Off RS41Tracker 1.17
CT2IRJU24304162022-12-06 11:24:3038.7764-9.1129499193136Clb=6.8m/s p=696.7hPa t=0.9C h=3.3% 403.020MHz Type=RS41-SGP rdzTTGOsonde
CT7AUS-11U24304162022-12-06 11:24:2538.7764-9.1132585263111Clb=6.3m/s t=1.1C h=3.3% p=698.9hPa 403.020 MHz Type=RS41-SGP ser=U2430416 Radiosonde
CT2IWF-11U24304162022-12-06 11:24:2138.7764-9.1134184203099Clb=6.6m/s t=1.1C h=3.3% p=699.9hPa 403.020 MHz Type=RS41-SGP ser=U2430416 Radiosonde
CS5LAS-11U24304162022-12-06 11:24:1638.7764-9.1134184203099Clb=6.6m/s 403.02MHz Type=RS41-SGP Aux[] BK=Off RS41Tracker 1.17
CT1ESY-11U24304162022-12-06 11:24:0238.7764-9.1144162173005Clb=5.0m/s t=0.6C h=5.3% p=708.2hPa 403.020 MHz Type=RS41-SGP ser=U2430416 Radiosonde
CT2IRJU24304162022-12-06 11:24:0038.7764-9.1144164193005Clb=5.0m/s p=708.2hPa t=0.6C h=5.3% 403.020MHz Type=RS41-SGP rdzTTGOsonde
CS5LAS-11U24304162022-12-06 11:23:5638.7763-9.1147551222966Clb=6.1m/s 403.02MHz Type=RS41-SGP Aux[] BK=Off RS41Tracker 1.17
CT7ARW-11U24304162022-12-06 11:23:5538.7763-9.1147650222966Clb=6.1m/s t=0.7C h=5.2% p=711.7hPa 403.020 MHz Type=RS41-SGP ser=U2430416 Radiosonde
CT7AUS-11U24304162022-12-06 11:23:4738.7759-9.1150830202909Clb=7.4m/s t=0.7C h=10.0% p=716.6hPa 403.020 MHz Type=RS41-SGP ser=U2430416 Radiosonde
CT2IWF-11U24304162022-12-06 11:23:4538.7758-9.1151537192898Clb=4.7m/s t=0.8C h=10.6% p=718.0hPa 403.020 MHz Type=RS41-SGP ser=U2430416 Radiosonde
CT2IRJU24304162022-12-06 11:23:4038.7757-9.1152413192876Clb=5.8m/s p=719.6hPa t=0.8C h=11.5% 403.020MHz Type=RS41-SGP rdzTTGOsonde
CT7ABP-10U24304162022-12-06 11:23:3838.7755-9.1152913222852Clb=7.4m/s t=1.0C h=10.7% p=721.7hPa 403.020 MHz Type=RS41-SGP ser=U2430416 Radiosonde
CS5LAS-11U24304162022-12-06 11:23:3638.7754-9.11529350282839Clb=6.5m/s 403.02MHz Type=RS41-SGP Aux[] BK=Off RS41Tracker 1.17
CT1ESY-11U24304162022-12-06 11:23:2938.7751-9.1152616112803Clb=4.7m/s t=0.8C h=13.8% p=726.1hPa 403.020 MHz Type=RS41-SGP ser=U2430416 Radiosonde
CT7ARW-11U24304162022-12-06 11:23:2338.7748-9.1153610132759Clb=6.4m/s t=0.7C h=17.0% p=730.1hPa 403.020 MHz Type=RS41-SGP ser=U2430416 Radiosonde
CT2IRJU24304162022-12-06 11:23:2038.7748-9.115360202747Clb=6.7m/s p=731.2hPa t=0.8C h=16.1% 403.020MHz Type=RS41-SGP rdzTTGOsonde
CT7AUS-11U24304162022-12-06 11:23:1638.7745-9.11541358172715Clb=6.4m/s t=0.9C h=14.9% p=734.1hPa 403.020 MHz Type=RS41-SGP ser=U2430416 Radiosonde
CS5LAS-11U24304162022-12-06 11:23:1538.7745-9.115414202708Clb=5.9m/s 403.02MHz Type=RS41-SGP Aux[] BK=Off RS41Tracker 1.17
CT2IWF-11U24304162022-12-06 11:23:1338.7744-9.1154217202702Clb=7.0m/s t=0.8C h=14.9% p=735.1hPa 403.020 MHz Type=RS41-SGP ser=U2430416 Radiosonde
CT2IRJU24304162022-12-06 11:22:5938.7739-9.1156321202619Clb=6.0m/s p=742.6hPa t=0.6C h=17.7% 403.020MHz Type=RS41-SGP rdzTTGOsonde
CT1ESY-11U24304162022-12-06 11:22:5738.7738-9.1157327192600Clb=7.6m/s t=0.7C h=17.8% p=744.4hPa 403.020 MHz Type=RS41-SGP ser=U2430416 Radiosonde
CS5LAS-11U24304162022-12-06 11:22:5538.7737-9.1157535372585Clb=7.4m/s 403.02MHz Type=RS41-SGP Aux[] BK=Off RS41Tracker 1.17
CT1EDGU24304162022-12-06 11:22:5338.7737-9.11586592566Clb=5.1m/s t=1.0C h=18.1% p=747.8hPa 403.021 MHz Type=RS41-SGP ser=U2430416 Radiosonde
CT7ARW-11U24304162022-12-06 11:22:5138.7737-9.1158366112560Clb=8.4m/s t=1.0C h=18.1% p=748.4hPa 403.020 MHz Type=RS41-SGP ser=U2430416 Radiosonde
CT7AUS-11U24304162022-12-06 11:22:4738.7736-9.1159534672522Clb=8.6m/s t=1.1C h=21.6% p=751.9hPa 403.020 MHz Type=RS41-SGP ser=U2430416 Radiosonde
CT2IWF-11U24304162022-12-06 11:22:4338.7735-9.115941132507Clb=6.1m/s t=1.2C h=22.0% p=753.5hPa 403.020 MHz Type=RS41-SGP ser=U2430416 Radiosonde
CT2IRJU24304162022-12-06 11:22:3938.7735-9.115942742495Clb=5.0m/s p=754.6hPa t=1.1C h=25.2% 403.020MHz Type=RS41-SGP rdzTTGOsonde
CT7ABP-10U24304162022-12-06 11:22:3738.7735-9.115984572479Clb=7.1m/s t=1.1C h=25.3% p=756.2hPa 403.020 MHz Type=RS41-SGP ser=U2430416 Radiosonde
CS5LAS-11U24304162022-12-06 11:22:3538.7734-9.1160640192462Clb=7.1m/s 403.02MHz Type=RS41-SGP Aux[] BK=Off RS41Tracker 1.17
CT1ESY-11U24304162022-12-06 11:22:2538.7732-9.1163540112404Clb=5.4m/s t=1.2C h=27.1% p=763.4hPa 403.020 MHz Type=RS41-SGP ser=U2430416 Radiosonde
CT1EDGU24304162022-12-06 11:22:2238.773-9.1165641132366Clb=6.1m/s t=1.2C h=30.0% p=766.9hPa 403.021 MHz Type=RS41-SGP ser=U2430416 Radiosonde
CT2IRJU24304162022-12-06 11:22:1938.773-9.1165642152366Clb=6.1m/s p=766.9hPa t=1.2C h=30.0% 403.020MHz Type=RS41-SGP rdzTTGOsonde
CS5LAS-11U24304162022-12-06 11:22:1538.7729-9.1167535132335Clb=6.5m/s 403.02MHz Type=RS41-SGP Aux[] BK=Off RS41Tracker 1.17
CT2IWF-11U24304162022-12-06 11:22:1238.7728-9.1168563132316Clb=5.8m/s t=0.8C h=-1.0% p=771.8hPa 403.020 MHz Type=RS41-SGP ser=U2430416 Radiosonde
CT2IRJU24304162022-12-06 11:21:5838.7728-9.11719103112245Clb=5.9m/s p=778.6hPa t=0.8C h=90.7% 403.020MHz Type=RS41-SGP rdzTTGOsonde
CS5LAS-11U24304162022-12-06 11:21:5538.7729-9.11734130172213Clb=5.9m/s 403.02MHz Type=RS41-SGP Aux[] BK=Off RS41Tracker 1.17
CT1ESY-11U24304162022-12-06 11:21:5338.7729-9.11738149172207Clb=6.7m/s t=0.9C h=88.8% p=782.4hPa 403.020 MHz Type=RS41-SGP ser=U2430416 Radiosonde
CT1EDGU24304162022-12-06 11:21:5238.773-9.11744149112180Clb=6.8m/s t=0.9C h=-1.0% p=785.2hPa 403.021 MHz Type=RS41-SGP ser=U2430416 Radiosonde
CT7ARW-11U24304162022-12-06 11:21:5138.7731-9.11758122262161Clb=6.7m/s t=0.9C h=90.0% p=786.6hPa 403.020 MHz Type=RS41-SGP ser=U2430416 Radiosonde
CS5LAS-11U24304162022-12-06 11:21:3538.7734-9.11829148152088Clb=5.5m/s 403.02MHz Type=RS41-SGP Aux[] BK=Off RS41Tracker 1.17
CS5LAS-11U24304162022-12-06 11:21:1338.774-9.11869184111954Clb=7.1m/s 403.02MHz Type=RS41-SGP Aux[] BK=Off RS41Tracker 1.17
CS5LAS-11U24304162022-12-06 11:20:5338.7744-9.1189514661832Clb=6.8m/s 403.02MHz Type=RS41-SGP Aux[] BK=Off RS41Tracker 1.17
CT2IRJU24304162022-12-06 11:20:4738.7745-9.1191412691739Clb=5.1m/s p=828.3hPa t=4.1C h=78.7% 403.020MHz Type=RS41-SGP rdzTTGOsonde
CT7ABP-10U24304162022-12-06 11:20:4538.7745-9.119177021727Clb=5.0m/s t=4.2C h=79.4% p=829.8hPa 403.020 MHz Type=RS41-SGP ser=U2430416 Radiosonde
CS5LAS-11U24304162022-12-06 11:20:3338.7745-9.1192310991709Clb=5.9m/s 403.02MHz Type=RS41-SGP Aux[] BK=Off RS41Tracker 1.17
CT1ESY-11U24304162022-12-06 11:20:2138.7744-9.1197528131610Clb=7.0m/s t=-273.0C h=-1.0% p=-1.0hPa 403.020 MHz Type=RS41 ser=U2430416 Radiosonde
CT2IRJU24304162022-12-06 11:20:1938.7744-9.1197529131610Clb=7.0m/s p=841.2hPa t=5.0C h=77.2% 403.020MHz Type=RS41-SGP rdzTTGOsonde
CS5LAS-11U24304162022-12-06 11:20:1338.7743-9.1198550131583Clb=8.3m/s 403.02MHz Type=RS41-SGP Aux[] BK=Off RS41Tracker 1.17
CT7AUS-11U24304162022-12-06 11:20:1138.7743-9.11998106171565Clb=4.1m/s t=5.4C h=77.3% p=846.2hPa 403.020 MHz Type=RS41-SGP ser=U2430416 Radiosonde
CT2IRJU24304162022-12-06 11:19:5438.7744-9.12059106171481Clb=6.4m/s p=855.5hPa t=5.8C h=79.5% 403.020MHz Type=RS41-SGP rdzTTGOsonde
CS5LAS-11U24304162022-12-06 11:19:5338.7744-9.120766151463Clb=5.5m/s 403.02MHz Type=RS41-SGP Aux[] BK=Off RS41Tracker 1.17
CT7ARW-11U24304162022-12-06 11:19:3838.7744-9.1214104131377Clb=5.7m/s t=6.6C h=81.8% p=866.1hPa 403.020 MHz Type=RS41-SGP ser=U2430416 Radiosonde
CT7ABP-10U24304162022-12-06 11:19:3438.7744-9.1215583151351Clb=6.5m/s t=6.6C h=87.1% p=868.9hPa 403.020 MHz Type=RS41-SGP ser=U2430416 Radiosonde
CT2IRJU24304162022-12-06 11:19:3338.7744-9.1215585151351Clb=6.5m/s p=868.9hPa t=6.6C h=87.1% 403.020MHz Type=RS41-SGP rdzTTGOsonde
CT2IRJU24304162022-12-06 11:19:1338.7744-9.122485191225Clb=8.8m/s p=882.2hPa 403.020MHz Type=RS41-SGP rdzTTGOsonde
CT7AUS-11U24304162022-12-06 11:19:0738.7745-9.1227119111180Clb=7.7m/s t=7.8C h=89.6% p=887.1hPa 403.020 MHz Type=RS41-SGP ser=U2430416 Radiosonde
CT7ARW-11U24304162022-12-06 11:19:0638.7745-9.1227119111180Clb=7.7m/s t=7.8C h=89.6% p=887.1hPa 403.020 MHz Type=RS41-SGP ser=U2430416 Radiosonde
CS5LAS-11U24304162022-12-06 11:18:5338.7746-9.12329105111101Clb=6.5m/s 403.02MHz Type=RS41-SGP Aux[] BK=Off RS41Tracker 1.17
CT2IRJU24304162022-12-06 11:18:5138.7746-9.12329106111101Clb=6.5m/s 403.020MHz Type=RS41-SGP rdzTTGOsonde
CT7AUS-11U24304162022-12-06 11:18:3638.7748-9.12388127111004Clb=7.0m/s t=9.0C h=87.7% p=905.9hPa 403.020 MHz Type=RS41-SGP ser=U2430416 Radiosonde
CT7ARW-11U24304162022-12-06 11:18:3438.7748-9.123958313992Clb=4.9m/s t=9.1C h=87.3% p=907.3hPa 403.020 MHz Type=RS41-SGP ser=U2430416 Radiosonde
CT7ABP-10U24304162022-12-06 11:18:3338.7748-9.123998011986Clb=6.2m/s t=9.1C h=87.4% p=907.9hPa 403.020 MHz Type=RS41-SGP ser=U2430416 Radiosonde
CT2IRJU24304162022-12-06 11:18:3038.7748-9.1240611613974Clb=5.7m/s 403.020MHz Type=RS41-SGP rdzTTGOsonde
CT2IRJU24304162022-12-06 11:18:0938.7751-9.1247612213839Clb=7.8m/s 403.020MHz Type=RS41 rdzTTGOsonde
CT7AUS-11U24304162022-12-06 11:18:0538.7751-9.124888113815Clb=6.2m/s t=10.1C h=86.2% p=-1.0hPa 403.020 MHz Type=RS41 ser=U2430416 Radiosonde
CT7ARW-11U24304162022-12-06 11:18:0238.7752-9.125051109788Clb=7.3m/s t=-273.0C h=-1.0% p=-1.0hPa 403.020 MHz Type=RS41 ser=U2430416 Radiosonde
CT7AUS-11U24304162022-12-06 11:17:3438.7754-9.12564822621Clb=7.9m/s t=-273.0C h=-1.0% p=-1.0hPa 403.020 MHz Type=RS41 ser=U2430416 Radiosonde
CT7ABP-10U24304162022-12-06 11:17:3338.7755-9.1256716113608Clb=5.9m/s t=11.3C h=89.8% p=949.4hPa 403.020 MHz Type=RS41-SGP ser=U2430416 Radiosonde
CT7ABP-10U24304162022-12-06 11:16:4038.776-9.125888020255Clb=4.7m/s t=13.8C h=89.9% p=991.4hPa 403.020 MHz Type=RS41-SGP ser=U2430416 Radiosonde